<?xml version="1.0" encoding="UTF-8" standalone="no" ?>
<gpx xmlns="http://www.topografix.com/GPX/1/1" xmlns:xsi="http://www.w3.org/2001/XMLSchema-instance" xsi:schemaLocation="http://www.topografix.com/GPX/1/1 http://www.topografix.com/GPX/1/1/gpx.xsd" version="1.1" creator="VisuGPX - https://www.visugpx.com">
  <metadata>
    <name>Les boucles pour Caussens</name>
  </metadata>
  <trk>
    <name><![CDATA[Sortie à vélo matinale]]></name>
    <extensions>
      <line xmlns="http://www.topografix.com/GPX/gpx_style/0/2">
        <color>880088</color>
        <width>4</width>
      </line>
    </extensions>
    <trkseg>
      <trkpt lat="43.98544" lon="0.5009">
        <ele>180.4</ele>
        <time>2011-07-24T06:23:40Z</time>
      </trkpt>
      <trkpt lat="43.98577" lon="0.50092">
        <ele>179.8</ele>
        <time>2011-07-24T06:29:32Z</time>
      </trkpt>
      <trkpt lat="43.98606" lon="0.50103">
        <ele>180.4</ele>
        <time>2011-07-24T06:29:38Z</time>
      </trkpt>
      <trkpt lat="43.98639" lon="0.50129">
        <ele>180.6</ele>
        <time>2011-07-24T06:29:44Z</time>
      </trkpt>
      <trkpt lat="43.98675" lon="0.50135">
        <ele>179.1</ele>
        <time>2011-07-24T06:29:50Z</time>
      </trkpt>
      <trkpt lat="43.98712" lon="0.50126">
        <ele>176.8</ele>
        <time>2011-07-24T06:29:56Z</time>
      </trkpt>
      <trkpt lat="43.98746" lon="0.50117">
        <ele>174.2</ele>
        <time>2011-07-24T06:30:01Z</time>
      </trkpt>
      <trkpt lat="43.98778" lon="0.50109">
        <ele>173.9</ele>
        <time>2011-07-24T06:30:06Z</time>
      </trkpt>
      <trkpt lat="43.98813" lon="0.50102">
        <ele>173.8</ele>
        <time>2011-07-24T06:30:12Z</time>
      </trkpt>
      <trkpt lat="43.98852" lon="0.50109">
        <ele>168.9</ele>
        <time>2011-07-24T06:30:18Z</time>
      </trkpt>
      <trkpt lat="43.98885" lon="0.50111">
        <ele>165.9</ele>
        <time>2011-07-24T06:30:23Z</time>
      </trkpt>
      <trkpt lat="43.98928" lon="0.50115">
        <ele>160.2</ele>
        <time>2011-07-24T06:30:29Z</time>
      </trkpt>
      <trkpt lat="43.9897" lon="0.5012">
        <ele>156.1</ele>
        <time>2011-07-24T06:30:34Z</time>
      </trkpt>
      <trkpt lat="43.99004" lon="0.5012">
        <ele>152.8</ele>
        <time>2011-07-24T06:30:38Z</time>
      </trkpt>
      <trkpt lat="43.99055" lon="0.50113">
        <ele>147.6</ele>
        <time>2011-07-24T06:30:44Z</time>
      </trkpt>
      <trkpt lat="43.99102" lon="0.50132">
        <ele>145.7</ele>
        <time>2011-07-24T06:30:50Z</time>
      </trkpt>
      <trkpt lat="43.99137" lon="0.50162">
        <ele>145.8</ele>
        <time>2011-07-24T06:30:55Z</time>
      </trkpt>
      <trkpt lat="43.9916" lon="0.50187">
        <ele>145.8</ele>
        <time>2011-07-24T06:30:59Z</time>
      </trkpt>
      <trkpt lat="43.99187" lon="0.50217">
        <ele>146</ele>
        <time>2011-07-24T06:31:05Z</time>
      </trkpt>
      <trkpt lat="43.99212" lon="0.50243">
        <ele>146.6</ele>
        <time>2011-07-24T06:31:12Z</time>
      </trkpt>
      <trkpt lat="43.99226" lon="0.50234">
        <ele>147.1</ele>
        <time>2011-07-24T06:31:22Z</time>
      </trkpt>
      <trkpt lat="43.99238" lon="0.50192">
        <ele>142.9</ele>
        <time>2011-07-24T06:31:28Z</time>
      </trkpt>
      <trkpt lat="43.99248" lon="0.50151">
        <ele>143.8</ele>
        <time>2011-07-24T06:31:35Z</time>
      </trkpt>
      <trkpt lat="43.99281" lon="0.50144">
        <ele>143.8</ele>
        <time>2011-07-24T06:31:43Z</time>
      </trkpt>
      <trkpt lat="43.99308" lon="0.50148">
        <ele>143.7</ele>
        <time>2011-07-24T06:31:49Z</time>
      </trkpt>
      <trkpt lat="43.99343" lon="0.50154">
        <ele>144.3</ele>
        <time>2011-07-24T06:31:57Z</time>
      </trkpt>
      <trkpt lat="43.9937" lon="0.50157">
        <ele>144.6</ele>
        <time>2011-07-24T06:32:03Z</time>
      </trkpt>
      <trkpt lat="43.99388" lon="0.5016">
        <ele>144.1</ele>
        <time>2011-07-24T06:32:07Z</time>
      </trkpt>
      <trkpt lat="43.99405" lon="0.50162">
        <ele>143.2</ele>
        <time>2011-07-24T06:32:11Z</time>
      </trkpt>
      <trkpt lat="43.99437" lon="0.50166">
        <ele>142.7</ele>
        <time>2011-07-24T06:32:18Z</time>
      </trkpt>
      <trkpt lat="43.99454" lon="0.50168">
        <ele>142.5</ele>
        <time>2011-07-24T06:32:22Z</time>
      </trkpt>
      <trkpt lat="43.99488" lon="0.50171">
        <ele>141</ele>
        <time>2011-07-24T06:32:30Z</time>
      </trkpt>
      <trkpt lat="43.9952" lon="0.50177">
        <ele>139.8</ele>
        <time>2011-07-24T06:32:38Z</time>
      </trkpt>
      <trkpt lat="43.99536" lon="0.5018">
        <ele>140.4</ele>
        <time>2011-07-24T06:32:42Z</time>
      </trkpt>
      <trkpt lat="43.99556" lon="0.50192">
        <ele>140.5</ele>
        <time>2011-07-24T06:32:47Z</time>
      </trkpt>
      <trkpt lat="43.99585" lon="0.50206">
        <ele>141</ele>
        <time>2011-07-24T06:32:55Z</time>
      </trkpt>
      <trkpt lat="43.99599" lon="0.5021">
        <ele>140.9</ele>
        <time>2011-07-24T06:32:59Z</time>
      </trkpt>
      <trkpt lat="43.99614" lon="0.50216">
        <ele>140.3</ele>
        <time>2011-07-24T06:33:04Z</time>
      </trkpt>
      <trkpt lat="43.99629" lon="0.50213">
        <ele>140.3</ele>
        <time>2011-07-24T06:33:10Z</time>
      </trkpt>
      <trkpt lat="43.99636" lon="0.50195">
        <ele>141</ele>
        <time>2011-07-24T06:33:15Z</time>
      </trkpt>
      <trkpt lat="43.99641" lon="0.50175">
        <ele>141.6</ele>
        <time>2011-07-24T06:33:20Z</time>
      </trkpt>
      <trkpt lat="43.99647" lon="0.50157">
        <ele>142.4</ele>
        <time>2011-07-24T06:33:25Z</time>
      </trkpt>
      <trkpt lat="43.99661" lon="0.50151">
        <ele>143.1</ele>
        <time>2011-07-24T06:33:30Z</time>
      </trkpt>
      <trkpt lat="43.99675" lon="0.50148">
        <ele>143.2</ele>
        <time>2011-07-24T06:33:35Z</time>
      </trkpt>
      <trkpt lat="43.99689" lon="0.50145">
        <ele>143.8</ele>
        <time>2011-07-24T06:33:40Z</time>
      </trkpt>
      <trkpt lat="43.99702" lon="0.50141">
        <ele>145.4</ele>
        <time>2011-07-24T06:33:46Z</time>
      </trkpt>
      <trkpt lat="43.99715" lon="0.50132">
        <ele>147.1</ele>
        <time>2011-07-24T06:33:52Z</time>
      </trkpt>
      <trkpt lat="43.99727" lon="0.50118">
        <ele>148</ele>
        <time>2011-07-24T06:33:58Z</time>
      </trkpt>
      <trkpt lat="43.99739" lon="0.50104">
        <ele>149.1</ele>
        <time>2011-07-24T06:34:04Z</time>
      </trkpt>
      <trkpt lat="43.99751" lon="0.5009">
        <ele>150.3</ele>
        <time>2011-07-24T06:34:10Z</time>
      </trkpt>
      <trkpt lat="43.99762" lon="0.50077">
        <ele>152.6</ele>
        <time>2011-07-24T06:34:16Z</time>
      </trkpt>
      <trkpt lat="43.99774" lon="0.50063">
        <ele>155.5</ele>
        <time>2011-07-24T06:34:22Z</time>
      </trkpt>
      <trkpt lat="43.99787" lon="0.50052">
        <ele>157.7</ele>
        <time>2011-07-24T06:34:29Z</time>
      </trkpt>
      <trkpt lat="43.99802" lon="0.50049">
        <ele>160.5</ele>
        <time>2011-07-24T06:34:36Z</time>
      </trkpt>
      <trkpt lat="43.99817" lon="0.5005">
        <ele>162.8</ele>
        <time>2011-07-24T06:34:43Z</time>
      </trkpt>
      <trkpt lat="43.99831" lon="0.50051">
        <ele>164.5</ele>
        <time>2011-07-24T06:34:50Z</time>
      </trkpt>
      <trkpt lat="43.99845" lon="0.5005">
        <ele>166.2</ele>
        <time>2011-07-24T06:34:57Z</time>
      </trkpt>
      <trkpt lat="43.99859" lon="0.50048">
        <ele>167.9</ele>
        <time>2011-07-24T06:35:04Z</time>
      </trkpt>
      <trkpt lat="43.99873" lon="0.50046">
        <ele>169.3</ele>
        <time>2011-07-24T06:35:11Z</time>
      </trkpt>
      <trkpt lat="43.99887" lon="0.50044">
        <ele>171.1</ele>
        <time>2011-07-24T06:35:18Z</time>
      </trkpt>
      <trkpt lat="43.999" lon="0.50051">
        <ele>172.3</ele>
        <time>2011-07-24T06:35:26Z</time>
      </trkpt>
      <trkpt lat="43.99914" lon="0.50057">
        <ele>174.1</ele>
        <time>2011-07-24T06:35:33Z</time>
      </trkpt>
      <trkpt lat="43.99926" lon="0.50063">
        <ele>175.7</ele>
        <time>2011-07-24T06:35:38Z</time>
      </trkpt>
      <trkpt lat="43.99941" lon="0.50071">
        <ele>176.9</ele>
        <time>2011-07-24T06:35:43Z</time>
      </trkpt>
      <trkpt lat="43.99955" lon="0.50078">
        <ele>177.1</ele>
        <time>2011-07-24T06:35:48Z</time>
      </trkpt>
      <trkpt lat="43.99969" lon="0.50074">
        <ele>177.6</ele>
        <time>2011-07-24T06:35:55Z</time>
      </trkpt>
      <trkpt lat="43.99978" lon="0.50056">
        <ele>179.8</ele>
        <time>2011-07-24T06:36:02Z</time>
      </trkpt>
      <trkpt lat="43.99984" lon="0.50039">
        <ele>181.6</ele>
        <time>2011-07-24T06:36:08Z</time>
      </trkpt>
      <trkpt lat="43.9999" lon="0.50021">
        <ele>182.8</ele>
        <time>2011-07-24T06:36:14Z</time>
      </trkpt>
      <trkpt lat="43.99997" lon="0.50003">
        <ele>184.5</ele>
        <time>2011-07-24T06:36:20Z</time>
      </trkpt>
      <trkpt lat="44.00006" lon="0.49988">
        <ele>186</ele>
        <time>2011-07-24T06:36:25Z</time>
      </trkpt>
      <trkpt lat="44.00015" lon="0.49973">
        <ele>187</ele>
        <time>2011-07-24T06:36:30Z</time>
      </trkpt>
      <trkpt lat="44.00026" lon="0.49957">
        <ele>187.8</ele>
        <time>2011-07-24T06:36:36Z</time>
      </trkpt>
      <trkpt lat="44.00031" lon="0.49939">
        <ele>187.8</ele>
        <time>2011-07-24T06:36:43Z</time>
      </trkpt>
      <trkpt lat="44.00051" lon="0.49912">
        <ele>188.5</ele>
        <time>2011-07-24T06:36:51Z</time>
      </trkpt>
      <trkpt lat="44.00054" lon="0.49892">
        <ele>188.5</ele>
        <time>2011-07-24T06:36:56Z</time>
      </trkpt>
      <trkpt lat="44.00059" lon="0.49872">
        <ele>189</ele>
        <time>2011-07-24T06:37:01Z</time>
      </trkpt>
      <trkpt lat="44.00069" lon="0.49855">
        <ele>189.2</ele>
        <time>2011-07-24T06:37:06Z</time>
      </trkpt>
      <trkpt lat="44.00084" lon="0.49847">
        <ele>189.2</ele>
        <time>2011-07-24T06:37:11Z</time>
      </trkpt>
      <trkpt lat="44.00112" lon="0.49832">
        <ele>189.2</ele>
        <time>2011-07-24T06:37:18Z</time>
      </trkpt>
      <trkpt lat="44.00139" lon="0.49815">
        <ele>188.1</ele>
        <time>2011-07-24T06:37:24Z</time>
      </trkpt>
      <trkpt lat="44.00168" lon="0.49795">
        <ele>186</ele>
        <time>2011-07-24T06:37:30Z</time>
      </trkpt>
      <trkpt lat="44.00203" lon="0.49773">
        <ele>184.4</ele>
        <time>2011-07-24T06:37:36Z</time>
      </trkpt>
      <trkpt lat="44.00238" lon="0.49746">
        <ele>184.1</ele>
        <time>2011-07-24T06:37:42Z</time>
      </trkpt>
      <trkpt lat="44.00271" lon="0.49715">
        <ele>184.8</ele>
        <time>2011-07-24T06:37:48Z</time>
      </trkpt>
      <trkpt lat="44.00304" lon="0.49691">
        <ele>184.7</ele>
        <time>2011-07-24T06:37:54Z</time>
      </trkpt>
      <trkpt lat="44.00342" lon="0.49694">
        <ele>181.5</ele>
        <time>2011-07-24T06:38:00Z</time>
      </trkpt>
      <trkpt lat="44.00377" lon="0.49701">
        <ele>182.6</ele>
        <time>2011-07-24T06:38:06Z</time>
      </trkpt>
      <trkpt lat="44.00413" lon="0.49696">
        <ele>182.2</ele>
        <time>2011-07-24T06:38:12Z</time>
      </trkpt>
      <trkpt lat="44.00447" lon="0.49687">
        <ele>181.5</ele>
        <time>2011-07-24T06:38:18Z</time>
      </trkpt>
      <trkpt lat="44.00484" lon="0.49682">
        <ele>180.9</ele>
        <time>2011-07-24T06:38:24Z</time>
      </trkpt>
      <trkpt lat="44.00524" lon="0.49676">
        <ele>183</ele>
        <time>2011-07-24T06:38:30Z</time>
      </trkpt>
      <trkpt lat="44.00557" lon="0.49673">
        <ele>185.4</ele>
        <time>2011-07-24T06:38:36Z</time>
      </trkpt>
      <trkpt lat="44.00583" lon="0.49663">
        <ele>185.3</ele>
        <time>2011-07-24T06:38:42Z</time>
      </trkpt>
      <trkpt lat="44.00585" lon="0.49625">
        <ele>185.5</ele>
        <time>2011-07-24T06:38:48Z</time>
      </trkpt>
      <trkpt lat="44.00576" lon="0.49585">
        <ele>187.3</ele>
        <time>2011-07-24T06:38:54Z</time>
      </trkpt>
      <trkpt lat="44.00572" lon="0.49544">
        <ele>190.9</ele>
        <time>2011-07-24T06:39:00Z</time>
      </trkpt>
      <trkpt lat="44.00575" lon="0.49502">
        <ele>193.4</ele>
        <time>2011-07-24T06:39:06Z</time>
      </trkpt>
      <trkpt lat="44.00579" lon="0.49462">
        <ele>195</ele>
        <time>2011-07-24T06:39:12Z</time>
      </trkpt>
      <trkpt lat="44.00576" lon="0.49416">
        <ele>199</ele>
        <time>2011-07-24T06:39:20Z</time>
      </trkpt>
      <trkpt lat="44.00576" lon="0.49396">
        <ele>199.5</ele>
        <time>2011-07-24T06:39:24Z</time>
      </trkpt>
      <trkpt lat="44.00583" lon="0.49357">
        <ele>200.3</ele>
        <time>2011-07-24T06:39:33Z</time>
      </trkpt>
      <trkpt lat="44.00586" lon="0.49337">
        <ele>201.7</ele>
        <time>2011-07-24T06:39:38Z</time>
      </trkpt>
      <trkpt lat="44.00582" lon="0.49317">
        <ele>201.8</ele>
        <time>2011-07-24T06:39:43Z</time>
      </trkpt>
      <trkpt lat="44.0057" lon="0.49303">
        <ele>201.9</ele>
        <time>2011-07-24T06:39:49Z</time>
      </trkpt>
      <trkpt lat="44.00556" lon="0.49302">
        <ele>202.1</ele>
        <time>2011-07-24T06:39:54Z</time>
      </trkpt>
      <trkpt lat="44.00525" lon="0.49302">
        <ele>202.6</ele>
        <time>2011-07-24T06:40:02Z</time>
      </trkpt>
      <trkpt lat="44.00499" lon="0.49278">
        <ele>203.2</ele>
        <time>2011-07-24T06:40:10Z</time>
      </trkpt>
      <trkpt lat="44.00487" lon="0.49263">
        <ele>203.6</ele>
        <time>2011-07-24T06:40:14Z</time>
      </trkpt>
      <trkpt lat="44.00464" lon="0.49231">
        <ele>205</ele>
        <time>2011-07-24T06:40:22Z</time>
      </trkpt>
      <trkpt lat="44.00453" lon="0.49215">
        <ele>205.2</ele>
        <time>2011-07-24T06:40:26Z</time>
      </trkpt>
      <trkpt lat="44.00443" lon="0.49199">
        <ele>205.4</ele>
        <time>2011-07-24T06:40:30Z</time>
      </trkpt>
      <trkpt lat="44.00422" lon="0.49166">
        <ele>205.8</ele>
        <time>2011-07-24T06:40:38Z</time>
      </trkpt>
      <trkpt lat="44.004" lon="0.49134">
        <ele>206.3</ele>
        <time>2011-07-24T06:40:46Z</time>
      </trkpt>
      <trkpt lat="44.00389" lon="0.49117">
        <ele>206.7</ele>
        <time>2011-07-24T06:40:50Z</time>
      </trkpt>
      <trkpt lat="44.00378" lon="0.491">
        <ele>207.8</ele>
        <time>2011-07-24T06:40:54Z</time>
      </trkpt>
      <trkpt lat="44.00356" lon="0.49066">
        <ele>208.4</ele>
        <time>2011-07-24T06:41:02Z</time>
      </trkpt>
      <trkpt lat="44.0033" lon="0.49034">
        <ele>208.7</ele>
        <time>2011-07-24T06:41:10Z</time>
      </trkpt>
      <trkpt lat="44.00317" lon="0.49018">
        <ele>208.9</ele>
        <time>2011-07-24T06:41:14Z</time>
      </trkpt>
      <trkpt lat="44.00303" lon="0.48999">
        <ele>209.2</ele>
        <time>2011-07-24T06:41:19Z</time>
      </trkpt>
      <trkpt lat="44.00294" lon="0.48982">
        <ele>209.5</ele>
        <time>2011-07-24T06:41:23Z</time>
      </trkpt>
      <trkpt lat="44.00278" lon="0.48945">
        <ele>211.4</ele>
        <time>2011-07-24T06:41:32Z</time>
      </trkpt>
      <trkpt lat="44.0027" lon="0.48924">
        <ele>212.5</ele>
        <time>2011-07-24T06:41:37Z</time>
      </trkpt>
      <trkpt lat="44.00263" lon="0.48907">
        <ele>214.1</ele>
        <time>2011-07-24T06:41:41Z</time>
      </trkpt>
      <trkpt lat="44.00255" lon="0.48891">
        <ele>214.9</ele>
        <time>2011-07-24T06:41:45Z</time>
      </trkpt>
      <trkpt lat="44.0024" lon="0.48855">
        <ele>217.5</ele>
        <time>2011-07-24T06:41:54Z</time>
      </trkpt>
      <trkpt lat="44.00232" lon="0.48836">
        <ele>219.1</ele>
        <time>2011-07-24T06:41:59Z</time>
      </trkpt>
      <trkpt lat="44.00224" lon="0.48816">
        <ele>220.1</ele>
        <time>2011-07-24T06:42:04Z</time>
      </trkpt>
      <trkpt lat="44.00214" lon="0.4878">
        <ele>222</ele>
        <time>2011-07-24T06:42:12Z</time>
      </trkpt>
      <trkpt lat="44.00208" lon="0.48739">
        <ele>221.8</ele>
        <time>2011-07-24T06:42:20Z</time>
      </trkpt>
      <trkpt lat="44.00201" lon="0.48701">
        <ele>221.7</ele>
        <time>2011-07-24T06:42:28Z</time>
      </trkpt>
      <trkpt lat="44.00205" lon="0.48679">
        <ele>221.6</ele>
        <time>2011-07-24T06:42:32Z</time>
      </trkpt>
      <trkpt lat="44.00214" lon="0.4865">
        <ele>221.1</ele>
        <time>2011-07-24T06:42:37Z</time>
      </trkpt>
      <trkpt lat="44.00224" lon="0.48608">
        <ele>220.4</ele>
        <time>2011-07-24T06:42:43Z</time>
      </trkpt>
      <trkpt lat="44.00231" lon="0.48579">
        <ele>220.7</ele>
        <time>2011-07-24T06:42:48Z</time>
      </trkpt>
      <trkpt lat="44.00239" lon="0.48557">
        <ele>220.2</ele>
        <time>2011-07-24T06:42:52Z</time>
      </trkpt>
      <trkpt lat="44.00253" lon="0.48514">
        <ele>219.8</ele>
        <time>2011-07-24T06:42:58Z</time>
      </trkpt>
      <trkpt lat="44.00269" lon="0.4847">
        <ele>220.1</ele>
        <time>2011-07-24T06:43:04Z</time>
      </trkpt>
      <trkpt lat="44.00298" lon="0.48424">
        <ele>214.6</ele>
        <time>2011-07-24T06:43:10Z</time>
      </trkpt>
      <trkpt lat="44.0033" lon="0.4837">
        <ele>210.5</ele>
        <time>2011-07-24T06:43:16Z</time>
      </trkpt>
      <trkpt lat="44.00359" lon="0.48342">
        <ele>207.5</ele>
        <time>2011-07-24T06:43:20Z</time>
      </trkpt>
      <trkpt lat="44.00402" lon="0.48292">
        <ele>197.1</ele>
        <time>2011-07-24T06:43:26Z</time>
      </trkpt>
      <trkpt lat="44.00448" lon="0.48247">
        <ele>192.8</ele>
        <time>2011-07-24T06:43:32Z</time>
      </trkpt>
      <trkpt lat="44.00487" lon="0.48205">
        <ele>190.6</ele>
        <time>2011-07-24T06:43:38Z</time>
      </trkpt>
      <trkpt lat="44.00526" lon="0.48199">
        <ele>189.2</ele>
        <time>2011-07-24T06:43:43Z</time>
      </trkpt>
      <trkpt lat="44.00579" lon="0.48192">
        <ele>184.7</ele>
        <time>2011-07-24T06:43:49Z</time>
      </trkpt>
      <trkpt lat="44.00614" lon="0.48196">
        <ele>182.5</ele>
        <time>2011-07-24T06:43:53Z</time>
      </trkpt>
      <trkpt lat="44.00661" lon="0.48203">
        <ele>183.4</ele>
        <time>2011-07-24T06:44:00Z</time>
      </trkpt>
      <trkpt lat="44.00679" lon="0.48165">
        <ele>179.9</ele>
        <time>2011-07-24T06:44:06Z</time>
      </trkpt>
      <trkpt lat="44.00697" lon="0.48117">
        <ele>178.3</ele>
        <time>2011-07-24T06:44:12Z</time>
      </trkpt>
      <trkpt lat="44.0071" lon="0.48084">
        <ele>177.7</ele>
        <time>2011-07-24T06:44:16Z</time>
      </trkpt>
      <trkpt lat="44.00723" lon="0.48049">
        <ele>175.7</ele>
        <time>2011-07-24T06:44:20Z</time>
      </trkpt>
      <trkpt lat="44.00739" lon="0.48008">
        <ele>174.2</ele>
        <time>2011-07-24T06:44:25Z</time>
      </trkpt>
      <trkpt lat="44.0076" lon="0.47975">
        <ele>174.1</ele>
        <time>2011-07-24T06:44:31Z</time>
      </trkpt>
      <trkpt lat="44.00786" lon="0.47948">
        <ele>169.4</ele>
        <time>2011-07-24T06:44:37Z</time>
      </trkpt>
      <trkpt lat="44.008" lon="0.47897">
        <ele>164.2</ele>
        <time>2011-07-24T06:44:43Z</time>
      </trkpt>
      <trkpt lat="44.00817" lon="0.47859">
        <ele>162.4</ele>
        <time>2011-07-24T06:44:51Z</time>
      </trkpt>
      <trkpt lat="44.00847" lon="0.47884">
        <ele>161.5</ele>
        <time>2011-07-24T06:44:57Z</time>
      </trkpt>
      <trkpt lat="44.00868" lon="0.47875">
        <ele>158.6</ele>
        <time>2011-07-24T06:45:06Z</time>
      </trkpt>
      <trkpt lat="44.00868" lon="0.47828">
        <ele>156</ele>
        <time>2011-07-24T06:45:12Z</time>
      </trkpt>
      <trkpt lat="44.00873" lon="0.47779">
        <ele>152.5</ele>
        <time>2011-07-24T06:45:17Z</time>
      </trkpt>
      <trkpt lat="44.00873" lon="0.47706">
        <ele>144.5</ele>
        <time>2011-07-24T06:45:23Z</time>
      </trkpt>
      <trkpt lat="44.00849" lon="0.47628">
        <ele>142.1</ele>
        <time>2011-07-24T06:45:29Z</time>
      </trkpt>
      <trkpt lat="44.00849" lon="0.47556">
        <ele>148.1</ele>
        <time>2011-07-24T06:45:36Z</time>
      </trkpt>
      <trkpt lat="44.00835" lon="0.47518">
        <ele>154</ele>
        <time>2011-07-24T06:45:44Z</time>
      </trkpt>
      <trkpt lat="44.00828" lon="0.47498">
        <ele>155.8</ele>
        <time>2011-07-24T06:45:49Z</time>
      </trkpt>
      <trkpt lat="44.00826" lon="0.4748">
        <ele>156.4</ele>
        <time>2011-07-24T06:45:54Z</time>
      </trkpt>
      <trkpt lat="44.00826" lon="0.47441">
        <ele>158.2</ele>
        <time>2011-07-24T06:46:02Z</time>
      </trkpt>
      <trkpt lat="44.00825" lon="0.47417">
        <ele>161.2</ele>
        <time>2011-07-24T06:46:07Z</time>
      </trkpt>
      <trkpt lat="44.00827" lon="0.47396">
        <ele>161.7</ele>
        <time>2011-07-24T06:46:11Z</time>
      </trkpt>
      <trkpt lat="44.00832" lon="0.47357">
        <ele>160.7</ele>
        <time>2011-07-24T06:46:17Z</time>
      </trkpt>
      <trkpt lat="44.00833" lon="0.47316">
        <ele>161.2</ele>
        <time>2011-07-24T06:46:24Z</time>
      </trkpt>
      <trkpt lat="44.00832" lon="0.47277">
        <ele>161</ele>
        <time>2011-07-24T06:46:30Z</time>
      </trkpt>
      <trkpt lat="44.00833" lon="0.47253">
        <ele>162.1</ele>
        <time>2011-07-24T06:46:34Z</time>
      </trkpt>
      <trkpt lat="44.00834" lon="0.47229">
        <ele>162.9</ele>
        <time>2011-07-24T06:46:38Z</time>
      </trkpt>
      <trkpt lat="44.00834" lon="0.47204">
        <ele>164.8</ele>
        <time>2011-07-24T06:46:42Z</time>
      </trkpt>
      <trkpt lat="44.0084" lon="0.47157">
        <ele>164.3</ele>
        <time>2011-07-24T06:46:50Z</time>
      </trkpt>
      <trkpt lat="44.00858" lon="0.47117">
        <ele>160.9</ele>
        <time>2011-07-24T06:46:57Z</time>
      </trkpt>
      <trkpt lat="44.00882" lon="0.47076">
        <ele>159.1</ele>
        <time>2011-07-24T06:47:03Z</time>
      </trkpt>
      <trkpt lat="44.00899" lon="0.47038">
        <ele>159.1</ele>
        <time>2011-07-24T06:47:09Z</time>
      </trkpt>
      <trkpt lat="44.009" lon="0.46998">
        <ele>159</ele>
        <time>2011-07-24T06:47:15Z</time>
      </trkpt>
      <trkpt lat="44.00887" lon="0.46955">
        <ele>160.6</ele>
        <time>2011-07-24T06:47:21Z</time>
      </trkpt>
      <trkpt lat="44.00884" lon="0.46904">
        <ele>161</ele>
        <time>2011-07-24T06:47:27Z</time>
      </trkpt>
      <trkpt lat="44.00893" lon="0.46861">
        <ele>163.1</ele>
        <time>2011-07-24T06:47:33Z</time>
      </trkpt>
      <trkpt lat="44.00909" lon="0.46818">
        <ele>162.2</ele>
        <time>2011-07-24T06:47:41Z</time>
      </trkpt>
      <trkpt lat="44.00919" lon="0.46781">
        <ele>163.4</ele>
        <time>2011-07-24T06:47:47Z</time>
      </trkpt>
      <trkpt lat="44.00921" lon="0.46741">
        <ele>165.9</ele>
        <time>2011-07-24T06:47:53Z</time>
      </trkpt>
      <trkpt lat="44.00937" lon="0.46707">
        <ele>166.1</ele>
        <time>2011-07-24T06:47:59Z</time>
      </trkpt>
      <trkpt lat="44.00947" lon="0.46696">
        <ele>165.9</ele>
        <time>2011-07-24T06:48:03Z</time>
      </trkpt>
      <trkpt lat="44.0096" lon="0.46688">
        <ele>165.2</ele>
        <time>2011-07-24T06:48:08Z</time>
      </trkpt>
      <trkpt lat="44.00978" lon="0.46689">
        <ele>164</ele>
        <time>2011-07-24T06:48:13Z</time>
      </trkpt>
      <trkpt lat="44.01004" lon="0.46666">
        <ele>163.1</ele>
        <time>2011-07-24T06:48:20Z</time>
      </trkpt>
      <trkpt lat="44.01026" lon="0.46634">
        <ele>162.5</ele>
        <time>2011-07-24T06:48:27Z</time>
      </trkpt>
      <trkpt lat="44.01033" lon="0.46594">
        <ele>162.8</ele>
        <time>2011-07-24T06:48:33Z</time>
      </trkpt>
      <trkpt lat="44.01046" lon="0.46559">
        <ele>163.1</ele>
        <time>2011-07-24T06:48:39Z</time>
      </trkpt>
      <trkpt lat="44.01052" lon="0.46536">
        <ele>163</ele>
        <time>2011-07-24T06:48:43Z</time>
      </trkpt>
      <trkpt lat="44.01056" lon="0.46511">
        <ele>163.1</ele>
        <time>2011-07-24T06:48:47Z</time>
      </trkpt>
      <trkpt lat="44.01065" lon="0.46475">
        <ele>162.6</ele>
        <time>2011-07-24T06:48:53Z</time>
      </trkpt>
      <trkpt lat="44.0108" lon="0.46437">
        <ele>161.7</ele>
        <time>2011-07-24T06:48:59Z</time>
      </trkpt>
      <trkpt lat="44.01105" lon="0.46419">
        <ele>161</ele>
        <time>2011-07-24T06:49:05Z</time>
      </trkpt>
      <trkpt lat="44.01141" lon="0.46432">
        <ele>159.6</ele>
        <time>2011-07-24T06:49:11Z</time>
      </trkpt>
      <trkpt lat="44.01173" lon="0.46436">
        <ele>159.2</ele>
        <time>2011-07-24T06:49:18Z</time>
      </trkpt>
      <trkpt lat="44.0118" lon="0.46418">
        <ele>160.5</ele>
        <time>2011-07-24T06:49:24Z</time>
      </trkpt>
      <trkpt lat="44.0117" lon="0.464">
        <ele>162.4</ele>
        <time>2011-07-24T06:49:29Z</time>
      </trkpt>
      <trkpt lat="44.01161" lon="0.4638">
        <ele>164.2</ele>
        <time>2011-07-24T06:49:34Z</time>
      </trkpt>
      <trkpt lat="44.01152" lon="0.46361">
        <ele>165.8</ele>
        <time>2011-07-24T06:49:39Z</time>
      </trkpt>
      <trkpt lat="44.01143" lon="0.46343">
        <ele>167.4</ele>
        <time>2011-07-24T06:49:44Z</time>
      </trkpt>
      <trkpt lat="44.01126" lon="0.46307">
        <ele>170</ele>
        <time>2011-07-24T06:49:53Z</time>
      </trkpt>
      <trkpt lat="44.01117" lon="0.4629">
        <ele>171.1</ele>
        <time>2011-07-24T06:49:58Z</time>
      </trkpt>
      <trkpt lat="44.01108" lon="0.46273">
        <ele>172.1</ele>
        <time>2011-07-24T06:50:03Z</time>
      </trkpt>
      <trkpt lat="44.01099" lon="0.46257">
        <ele>173.2</ele>
        <time>2011-07-24T06:50:10Z</time>
      </trkpt>
      <trkpt lat="44.01092" lon="0.46237">
        <ele>174.1</ele>
        <time>2011-07-24T06:50:16Z</time>
      </trkpt>
      <trkpt lat="44.01091" lon="0.46216">
        <ele>175.1</ele>
        <time>2011-07-24T06:50:22Z</time>
      </trkpt>
      <trkpt lat="44.0109" lon="0.46194">
        <ele>175.6</ele>
        <time>2011-07-24T06:50:28Z</time>
      </trkpt>
      <trkpt lat="44.01084" lon="0.46176">
        <ele>175.9</ele>
        <time>2011-07-24T06:50:33Z</time>
      </trkpt>
      <trkpt lat="44.01074" lon="0.4616">
        <ele>175.5</ele>
        <time>2011-07-24T06:50:38Z</time>
      </trkpt>
      <trkpt lat="44.01063" lon="0.46144">
        <ele>175.1</ele>
        <time>2011-07-24T06:50:43Z</time>
      </trkpt>
      <trkpt lat="44.01052" lon="0.46129">
        <ele>174.5</ele>
        <time>2011-07-24T06:50:48Z</time>
      </trkpt>
      <trkpt lat="44.01043" lon="0.46113">
        <ele>173.7</ele>
        <time>2011-07-24T06:50:53Z</time>
      </trkpt>
      <trkpt lat="44.01033" lon="0.46098">
        <ele>172.9</ele>
        <time>2011-07-24T06:50:58Z</time>
      </trkpt>
      <trkpt lat="44.01024" lon="0.46082">
        <ele>172</ele>
        <time>2011-07-24T06:51:02Z</time>
      </trkpt>
      <trkpt lat="44.01006" lon="0.46047">
        <ele>170</ele>
        <time>2011-07-24T06:51:09Z</time>
      </trkpt>
      <trkpt lat="44.00991" lon="0.46007">
        <ele>168.1</ele>
        <time>2011-07-24T06:51:15Z</time>
      </trkpt>
      <trkpt lat="44.00976" lon="0.45967">
        <ele>166.9</ele>
        <time>2011-07-24T06:51:20Z</time>
      </trkpt>
      <trkpt lat="44.00946" lon="0.45915">
        <ele>166.6</ele>
        <time>2011-07-24T06:51:26Z</time>
      </trkpt>
      <trkpt lat="44.00927" lon="0.4588">
        <ele>166.9</ele>
        <time>2011-07-24T06:51:30Z</time>
      </trkpt>
      <trkpt lat="44.00903" lon="0.45827">
        <ele>167.5</ele>
        <time>2011-07-24T06:51:36Z</time>
      </trkpt>
      <trkpt lat="44.00875" lon="0.45782">
        <ele>167.9</ele>
        <time>2011-07-24T06:51:42Z</time>
      </trkpt>
      <trkpt lat="44.00851" lon="0.45751">
        <ele>168.4</ele>
        <time>2011-07-24T06:51:47Z</time>
      </trkpt>
      <trkpt lat="44.00825" lon="0.45715">
        <ele>169.1</ele>
        <time>2011-07-24T06:51:53Z</time>
      </trkpt>
      <trkpt lat="44.00804" lon="0.45682">
        <ele>169.7</ele>
        <time>2011-07-24T06:51:59Z</time>
      </trkpt>
      <trkpt lat="44.00794" lon="0.45699">
        <ele>171.3</ele>
        <time>2011-07-24T06:52:05Z</time>
      </trkpt>
      <trkpt lat="44.008" lon="0.45737">
        <ele>172.5</ele>
        <time>2011-07-24T06:52:11Z</time>
      </trkpt>
      <trkpt lat="44.00781" lon="0.45763">
        <ele>173.6</ele>
        <time>2011-07-24T06:52:18Z</time>
      </trkpt>
      <trkpt lat="44.00766" lon="0.45798">
        <ele>172.9</ele>
        <time>2011-07-24T06:52:24Z</time>
      </trkpt>
      <trkpt lat="44.00758" lon="0.4584">
        <ele>172.7</ele>
        <time>2011-07-24T06:52:30Z</time>
      </trkpt>
      <trkpt lat="44.00751" lon="0.45883">
        <ele>173.4</ele>
        <time>2011-07-24T06:52:36Z</time>
      </trkpt>
      <trkpt lat="44.00744" lon="0.45924">
        <ele>175.4</ele>
        <time>2011-07-24T06:52:42Z</time>
      </trkpt>
      <trkpt lat="44.00734" lon="0.45966">
        <ele>175.7</ele>
        <time>2011-07-24T06:52:49Z</time>
      </trkpt>
      <trkpt lat="44.00731" lon="0.45988">
        <ele>177.1</ele>
        <time>2011-07-24T06:52:53Z</time>
      </trkpt>
      <trkpt lat="44.00726" lon="0.46033">
        <ele>177.3</ele>
        <time>2011-07-24T06:53:01Z</time>
      </trkpt>
      <trkpt lat="44.00723" lon="0.46055">
        <ele>177.6</ele>
        <time>2011-07-24T06:53:05Z</time>
      </trkpt>
      <trkpt lat="44.00713" lon="0.461">
        <ele>177.8</ele>
        <time>2011-07-24T06:53:13Z</time>
      </trkpt>
      <trkpt lat="44.00708" lon="0.46122">
        <ele>178.9</ele>
        <time>2011-07-24T06:53:17Z</time>
      </trkpt>
      <trkpt lat="44.00697" lon="0.46167">
        <ele>177.5</ele>
        <time>2011-07-24T06:53:25Z</time>
      </trkpt>
      <trkpt lat="44.00691" lon="0.46191">
        <ele>177.5</ele>
        <time>2011-07-24T06:53:29Z</time>
      </trkpt>
      <trkpt lat="44.00681" lon="0.46227">
        <ele>176.4</ele>
        <time>2011-07-24T06:53:35Z</time>
      </trkpt>
      <trkpt lat="44.00662" lon="0.46265">
        <ele>174.8</ele>
        <time>2011-07-24T06:53:41Z</time>
      </trkpt>
      <trkpt lat="44.00639" lon="0.463">
        <ele>171.3</ele>
        <time>2011-07-24T06:53:47Z</time>
      </trkpt>
      <trkpt lat="44.00614" lon="0.46339">
        <ele>169.9</ele>
        <time>2011-07-24T06:53:53Z</time>
      </trkpt>
      <trkpt lat="44.00598" lon="0.46378">
        <ele>168.9</ele>
        <time>2011-07-24T06:53:59Z</time>
      </trkpt>
      <trkpt lat="44.00591" lon="0.46416">
        <ele>167.8</ele>
        <time>2011-07-24T06:54:05Z</time>
      </trkpt>
      <trkpt lat="44.00585" lon="0.46458">
        <ele>167.7</ele>
        <time>2011-07-24T06:54:12Z</time>
      </trkpt>
      <trkpt lat="44.00582" lon="0.46482">
        <ele>167.8</ele>
        <time>2011-07-24T06:54:16Z</time>
      </trkpt>
      <trkpt lat="44.0058" lon="0.4652">
        <ele>168.1</ele>
        <time>2011-07-24T06:54:22Z</time>
      </trkpt>
      <trkpt lat="44.00577" lon="0.46558">
        <ele>169.2</ele>
        <time>2011-07-24T06:54:28Z</time>
      </trkpt>
      <trkpt lat="44.00575" lon="0.46578">
        <ele>170.9</ele>
        <time>2011-07-24T06:54:32Z</time>
      </trkpt>
      <trkpt lat="44.00563" lon="0.46617">
        <ele>171.6</ele>
        <time>2011-07-24T06:54:39Z</time>
      </trkpt>
      <trkpt lat="44.00551" lon="0.46654">
        <ele>170.4</ele>
        <time>2011-07-24T06:54:45Z</time>
      </trkpt>
      <trkpt lat="44.00539" lon="0.46696">
        <ele>169</ele>
        <time>2011-07-24T06:54:51Z</time>
      </trkpt>
      <trkpt lat="44.00531" lon="0.46735">
        <ele>170.2</ele>
        <time>2011-07-24T06:54:57Z</time>
      </trkpt>
      <trkpt lat="44.00522" lon="0.46772">
        <ele>171.5</ele>
        <time>2011-07-24T06:55:03Z</time>
      </trkpt>
      <trkpt lat="44.00516" lon="0.46795">
        <ele>171.7</ele>
        <time>2011-07-24T06:55:07Z</time>
      </trkpt>
      <trkpt lat="44.0051" lon="0.46815">
        <ele>171.8</ele>
        <time>2011-07-24T06:55:11Z</time>
      </trkpt>
      <trkpt lat="44.00508" lon="0.46835">
        <ele>173</ele>
        <time>2011-07-24T06:55:15Z</time>
      </trkpt>
      <trkpt lat="44.00492" lon="0.46865">
        <ele>174.3</ele>
        <time>2011-07-24T06:55:23Z</time>
      </trkpt>
      <trkpt lat="44.00461" lon="0.46871">
        <ele>170.5</ele>
        <time>2011-07-24T06:55:30Z</time>
      </trkpt>
      <trkpt lat="44.00434" lon="0.46896">
        <ele>171.6</ele>
        <time>2011-07-24T06:55:36Z</time>
      </trkpt>
      <trkpt lat="44.00414" lon="0.4693">
        <ele>173.3</ele>
        <time>2011-07-24T06:55:44Z</time>
      </trkpt>
      <trkpt lat="44.0038" lon="0.4693">
        <ele>174</ele>
        <time>2011-07-24T06:55:52Z</time>
      </trkpt>
      <trkpt lat="44.00366" lon="0.46928">
        <ele>174.6</ele>
        <time>2011-07-24T06:55:56Z</time>
      </trkpt>
      <trkpt lat="44.00351" lon="0.46936">
        <ele>175.8</ele>
        <time>2011-07-24T06:56:01Z</time>
      </trkpt>
      <trkpt lat="44.00338" lon="0.46944">
        <ele>176.6</ele>
        <time>2011-07-24T06:56:18Z</time>
      </trkpt>
      <trkpt lat="44.00317" lon="0.46973">
        <ele>179</ele>
        <time>2011-07-24T06:56:26Z</time>
      </trkpt>
      <trkpt lat="44.003" lon="0.47008">
        <ele>181.8</ele>
        <time>2011-07-24T06:56:35Z</time>
      </trkpt>
      <trkpt lat="44.00293" lon="0.47026">
        <ele>182.1</ele>
        <time>2011-07-24T06:56:40Z</time>
      </trkpt>
      <trkpt lat="44.00284" lon="0.47044">
        <ele>182.9</ele>
        <time>2011-07-24T06:56:45Z</time>
      </trkpt>
      <trkpt lat="44.00276" lon="0.47063">
        <ele>183.9</ele>
        <time>2011-07-24T06:56:50Z</time>
      </trkpt>
      <trkpt lat="44.00268" lon="0.47082">
        <ele>185.2</ele>
        <time>2011-07-24T06:56:55Z</time>
      </trkpt>
      <trkpt lat="44.00262" lon="0.47099">
        <ele>186.5</ele>
        <time>2011-07-24T06:57:00Z</time>
      </trkpt>
      <trkpt lat="44.00256" lon="0.47116">
        <ele>187.2</ele>
        <time>2011-07-24T06:57:05Z</time>
      </trkpt>
      <trkpt lat="44.00251" lon="0.47135">
        <ele>188.2</ele>
        <time>2011-07-24T06:57:10Z</time>
      </trkpt>
      <trkpt lat="44.00247" lon="0.47154">
        <ele>189.7</ele>
        <time>2011-07-24T06:57:15Z</time>
      </trkpt>
      <trkpt lat="44.00245" lon="0.47173">
        <ele>191.7</ele>
        <time>2011-07-24T06:57:20Z</time>
      </trkpt>
      <trkpt lat="44.00241" lon="0.47192">
        <ele>193.2</ele>
        <time>2011-07-24T06:57:25Z</time>
      </trkpt>
      <trkpt lat="44.00236" lon="0.47212">
        <ele>194.9</ele>
        <time>2011-07-24T06:57:30Z</time>
      </trkpt>
      <trkpt lat="44.0023" lon="0.47232">
        <ele>196.3</ele>
        <time>2011-07-24T06:57:35Z</time>
      </trkpt>
      <trkpt lat="44.00224" lon="0.47251">
        <ele>197.3</ele>
        <time>2011-07-24T06:57:40Z</time>
      </trkpt>
      <trkpt lat="44.00218" lon="0.47269">
        <ele>198</ele>
        <time>2011-07-24T06:57:45Z</time>
      </trkpt>
      <trkpt lat="44.00213" lon="0.47287">
        <ele>198.5</ele>
        <time>2011-07-24T06:57:50Z</time>
      </trkpt>
      <trkpt lat="44.00207" lon="0.47307">
        <ele>199.4</ele>
        <time>2011-07-24T06:57:56Z</time>
      </trkpt>
      <trkpt lat="44.00203" lon="0.47326">
        <ele>200</ele>
        <time>2011-07-24T06:58:02Z</time>
      </trkpt>
      <trkpt lat="44.00217" lon="0.47333">
        <ele>200.1</ele>
        <time>2011-07-24T06:58:08Z</time>
      </trkpt>
      <trkpt lat="44.00232" lon="0.47338">
        <ele>200.2</ele>
        <time>2011-07-24T06:58:13Z</time>
      </trkpt>
      <trkpt lat="44.00248" lon="0.47343">
        <ele>200.3</ele>
        <time>2011-07-24T06:58:18Z</time>
      </trkpt>
      <trkpt lat="44.00263" lon="0.47352">
        <ele>200.4</ele>
        <time>2011-07-24T06:58:23Z</time>
      </trkpt>
      <trkpt lat="44.00277" lon="0.47362">
        <ele>200.4</ele>
        <time>2011-07-24T06:58:28Z</time>
      </trkpt>
      <trkpt lat="44.00289" lon="0.47373">
        <ele>200.5</ele>
        <time>2011-07-24T06:58:33Z</time>
      </trkpt>
      <trkpt lat="44.00284" lon="0.47391">
        <ele>200.5</ele>
        <time>2011-07-24T06:58:41Z</time>
      </trkpt>
      <trkpt lat="44.00271" lon="0.47402">
        <ele>200.6</ele>
        <time>2011-07-24T07:00:47Z</time>
      </trkpt>
      <trkpt lat="44.00253" lon="0.47434">
        <ele>200.6</ele>
        <time>2011-07-24T07:00:55Z</time>
      </trkpt>
      <trkpt lat="44.00234" lon="0.47463">
        <ele>201.7</ele>
        <time>2011-07-24T07:01:03Z</time>
      </trkpt>
      <trkpt lat="44.00223" lon="0.47478">
        <ele>201.7</ele>
        <time>2011-07-24T07:01:07Z</time>
      </trkpt>
      <trkpt lat="44.00203" lon="0.47507">
        <ele>200.4</ele>
        <time>2011-07-24T07:01:15Z</time>
      </trkpt>
      <trkpt lat="44.00182" lon="0.47538">
        <ele>202</ele>
        <time>2011-07-24T07:01:23Z</time>
      </trkpt>
      <trkpt lat="44.00169" lon="0.4755">
        <ele>202.6</ele>
        <time>2011-07-24T07:01:27Z</time>
      </trkpt>
      <trkpt lat="44.00141" lon="0.47572">
        <ele>204</ele>
        <time>2011-07-24T07:01:35Z</time>
      </trkpt>
      <trkpt lat="44.00129" lon="0.47587">
        <ele>203.9</ele>
        <time>2011-07-24T07:01:39Z</time>
      </trkpt>
      <trkpt lat="44.00107" lon="0.47614">
        <ele>203.6</ele>
        <time>2011-07-24T07:01:47Z</time>
      </trkpt>
      <trkpt lat="44.00085" lon="0.4765">
        <ele>202.1</ele>
        <time>2011-07-24T07:01:54Z</time>
      </trkpt>
      <trkpt lat="44.00073" lon="0.47694">
        <ele>200.4</ele>
        <time>2011-07-24T07:02:00Z</time>
      </trkpt>
      <trkpt lat="44.00065" lon="0.47732">
        <ele>199</ele>
        <time>2011-07-24T07:02:04Z</time>
      </trkpt>
      <trkpt lat="44.00074" lon="0.47769">
        <ele>202.7</ele>
        <time>2011-07-24T07:02:10Z</time>
      </trkpt>
      <trkpt lat="44.0009" lon="0.47806">
        <ele>206.3</ele>
        <time>2011-07-24T07:02:16Z</time>
      </trkpt>
      <trkpt lat="44.00085" lon="0.47848">
        <ele>205.6</ele>
        <time>2011-07-24T07:02:22Z</time>
      </trkpt>
      <trkpt lat="44.00086" lon="0.4789">
        <ele>205.3</ele>
        <time>2011-07-24T07:02:28Z</time>
      </trkpt>
      <trkpt lat="44.00082" lon="0.4793">
        <ele>205.3</ele>
        <time>2011-07-24T07:02:34Z</time>
      </trkpt>
      <trkpt lat="44.00082" lon="0.47954">
        <ele>205.8</ele>
        <time>2011-07-24T07:02:38Z</time>
      </trkpt>
      <trkpt lat="44.00076" lon="0.48001">
        <ele>207.6</ele>
        <time>2011-07-24T07:02:46Z</time>
      </trkpt>
      <trkpt lat="44.00072" lon="0.48043">
        <ele>209</ele>
        <time>2011-07-24T07:02:53Z</time>
      </trkpt>
      <trkpt lat="44.00054" lon="0.48068">
        <ele>210.6</ele>
        <time>2011-07-24T07:03:04Z</time>
      </trkpt>
      <trkpt lat="44.0004" lon="0.48075">
        <ele>210.8</ele>
        <time>2011-07-24T07:03:09Z</time>
      </trkpt>
      <trkpt lat="44.00007" lon="0.48089">
        <ele>208</ele>
        <time>2011-07-24T07:03:15Z</time>
      </trkpt>
      <trkpt lat="43.99965" lon="0.4808">
        <ele>203.2</ele>
        <time>2011-07-24T07:03:22Z</time>
      </trkpt>
      <trkpt lat="43.99934" lon="0.4806">
        <ele>199.5</ele>
        <time>2011-07-24T07:03:27Z</time>
      </trkpt>
      <trkpt lat="43.99901" lon="0.48057">
        <ele>197.5</ele>
        <time>2011-07-24T07:03:32Z</time>
      </trkpt>
      <trkpt lat="43.99867" lon="0.48068">
        <ele>194.3</ele>
        <time>2011-07-24T07:03:37Z</time>
      </trkpt>
      <trkpt lat="43.99829" lon="0.48059">
        <ele>188.2</ele>
        <time>2011-07-24T07:03:43Z</time>
      </trkpt>
      <trkpt lat="43.99793" lon="0.48049">
        <ele>186</ele>
        <time>2011-07-24T07:03:49Z</time>
      </trkpt>
      <trkpt lat="43.99751" lon="0.48032">
        <ele>184.7</ele>
        <time>2011-07-24T07:03:56Z</time>
      </trkpt>
      <trkpt lat="43.99716" lon="0.48013">
        <ele>185.1</ele>
        <time>2011-07-24T07:04:02Z</time>
      </trkpt>
      <trkpt lat="43.99695" lon="0.47973">
        <ele>183.9</ele>
        <time>2011-07-24T07:04:08Z</time>
      </trkpt>
      <trkpt lat="43.99683" lon="0.47931">
        <ele>181.7</ele>
        <time>2011-07-24T07:04:14Z</time>
      </trkpt>
      <trkpt lat="43.99662" lon="0.47895">
        <ele>180.5</ele>
        <time>2011-07-24T07:04:20Z</time>
      </trkpt>
      <trkpt lat="43.99648" lon="0.47883">
        <ele>181</ele>
        <time>2011-07-24T07:04:24Z</time>
      </trkpt>
      <trkpt lat="43.99619" lon="0.47879">
        <ele>181.4</ele>
        <time>2011-07-24T07:04:30Z</time>
      </trkpt>
      <trkpt lat="43.99591" lon="0.47859">
        <ele>181.9</ele>
        <time>2011-07-24T07:04:38Z</time>
      </trkpt>
      <trkpt lat="43.99557" lon="0.47859">
        <ele>182.2</ele>
        <time>2011-07-24T07:04:44Z</time>
      </trkpt>
      <trkpt lat="43.99519" lon="0.47863">
        <ele>180.8</ele>
        <time>2011-07-24T07:04:50Z</time>
      </trkpt>
      <trkpt lat="43.99472" lon="0.47853">
        <ele>180</ele>
        <time>2011-07-24T07:04:57Z</time>
      </trkpt>
      <trkpt lat="43.99444" lon="0.47831">
        <ele>181.4</ele>
        <time>2011-07-24T07:05:03Z</time>
      </trkpt>
      <trkpt lat="43.99416" lon="0.4781">
        <ele>181.2</ele>
        <time>2011-07-24T07:05:11Z</time>
      </trkpt>
      <trkpt lat="43.99387" lon="0.47799">
        <ele>182</ele>
        <time>2011-07-24T07:05:19Z</time>
      </trkpt>
      <trkpt lat="43.99373" lon="0.47793">
        <ele>181.4</ele>
        <time>2011-07-24T07:05:23Z</time>
      </trkpt>
      <trkpt lat="43.99352" lon="0.47767">
        <ele>179.1</ele>
        <time>2011-07-24T07:05:31Z</time>
      </trkpt>
      <trkpt lat="43.9933" lon="0.47745">
        <ele>178.5</ele>
        <time>2011-07-24T07:05:40Z</time>
      </trkpt>
      <trkpt lat="43.99314" lon="0.47738">
        <ele>179.9</ele>
        <time>2011-07-24T07:05:45Z</time>
      </trkpt>
      <trkpt lat="43.993" lon="0.47734">
        <ele>181.2</ele>
        <time>2011-07-24T07:05:49Z</time>
      </trkpt>
      <trkpt lat="43.99271" lon="0.47728">
        <ele>182.5</ele>
        <time>2011-07-24T07:05:57Z</time>
      </trkpt>
      <trkpt lat="43.99258" lon="0.47723">
        <ele>181.9</ele>
        <time>2011-07-24T07:06:01Z</time>
      </trkpt>
      <trkpt lat="43.99245" lon="0.47719">
        <ele>181.5</ele>
        <time>2011-07-24T07:06:05Z</time>
      </trkpt>
      <trkpt lat="43.99227" lon="0.47714">
        <ele>181.8</ele>
        <time>2011-07-24T07:06:11Z</time>
      </trkpt>
      <trkpt lat="43.9921" lon="0.47708">
        <ele>180.6</ele>
        <time>2011-07-24T07:06:16Z</time>
      </trkpt>
      <trkpt lat="43.99179" lon="0.47705">
        <ele>177.8</ele>
        <time>2011-07-24T07:06:22Z</time>
      </trkpt>
      <trkpt lat="43.99146" lon="0.47712">
        <ele>176.1</ele>
        <time>2011-07-24T07:06:29Z</time>
      </trkpt>
      <trkpt lat="43.99115" lon="0.47713">
        <ele>175.5</ele>
        <time>2011-07-24T07:06:35Z</time>
      </trkpt>
      <trkpt lat="43.99069" lon="0.47721">
        <ele>175.1</ele>
        <time>2011-07-24T07:06:42Z</time>
      </trkpt>
      <trkpt lat="43.99033" lon="0.47728">
        <ele>174.5</ele>
        <time>2011-07-24T07:06:48Z</time>
      </trkpt>
      <trkpt lat="43.98997" lon="0.47726">
        <ele>174</ele>
        <time>2011-07-24T07:06:54Z</time>
      </trkpt>
      <trkpt lat="43.9896" lon="0.47717">
        <ele>174.5</ele>
        <time>2011-07-24T07:07:00Z</time>
      </trkpt>
      <trkpt lat="43.98926" lon="0.47708">
        <ele>175.8</ele>
        <time>2011-07-24T07:07:05Z</time>
      </trkpt>
      <trkpt lat="43.98875" lon="0.47696">
        <ele>178.2</ele>
        <time>2011-07-24T07:07:12Z</time>
      </trkpt>
      <trkpt lat="43.98835" lon="0.47679">
        <ele>180</ele>
        <time>2011-07-24T07:07:18Z</time>
      </trkpt>
      <trkpt lat="43.98801" lon="0.47661">
        <ele>180.9</ele>
        <time>2011-07-24T07:07:24Z</time>
      </trkpt>
      <trkpt lat="43.98767" lon="0.47648">
        <ele>181</ele>
        <time>2011-07-24T07:07:30Z</time>
      </trkpt>
      <trkpt lat="43.98735" lon="0.47662">
        <ele>180.9</ele>
        <time>2011-07-24T07:07:38Z</time>
      </trkpt>
      <trkpt lat="43.9872" lon="0.4767">
        <ele>180.8</ele>
        <time>2011-07-24T07:07:42Z</time>
      </trkpt>
      <trkpt lat="43.9869" lon="0.47683">
        <ele>180.5</ele>
        <time>2011-07-24T07:07:49Z</time>
      </trkpt>
      <trkpt lat="43.98664" lon="0.47697">
        <ele>180.2</ele>
        <time>2011-07-24T07:07:55Z</time>
      </trkpt>
      <trkpt lat="43.98636" lon="0.47704">
        <ele>180</ele>
        <time>2011-07-24T07:08:03Z</time>
      </trkpt>
      <trkpt lat="43.98624" lon="0.47715">
        <ele>179.7</ele>
        <time>2011-07-24T07:08:07Z</time>
      </trkpt>
      <trkpt lat="43.98599" lon="0.47727">
        <ele>178.9</ele>
        <time>2011-07-24T07:08:13Z</time>
      </trkpt>
      <trkpt lat="43.98568" lon="0.47739">
        <ele>177.9</ele>
        <time>2011-07-24T07:08:21Z</time>
      </trkpt>
      <trkpt lat="43.98553" lon="0.47747">
        <ele>177.3</ele>
        <time>2011-07-24T07:08:26Z</time>
      </trkpt>
      <trkpt lat="43.98545" lon="0.47729">
        <ele>177</ele>
        <time>2011-07-24T07:08:31Z</time>
      </trkpt>
      <trkpt lat="43.98553" lon="0.47686">
        <ele>176.8</ele>
        <time>2011-07-24T07:08:37Z</time>
      </trkpt>
      <trkpt lat="43.98562" lon="0.47636">
        <ele>176.4</ele>
        <time>2011-07-24T07:08:43Z</time>
      </trkpt>
      <trkpt lat="43.98572" lon="0.47583">
        <ele>174.9</ele>
        <time>2011-07-24T07:08:49Z</time>
      </trkpt>
      <trkpt lat="43.98576" lon="0.47532">
        <ele>174.4</ele>
        <time>2011-07-24T07:08:56Z</time>
      </trkpt>
      <trkpt lat="43.98558" lon="0.47496">
        <ele>173.9</ele>
        <time>2011-07-24T07:09:02Z</time>
      </trkpt>
      <trkpt lat="43.9854" lon="0.47462">
        <ele>171.9</ele>
        <time>2011-07-24T07:09:10Z</time>
      </trkpt>
      <trkpt lat="43.98539" lon="0.4741">
        <ele>168.6</ele>
        <time>2011-07-24T07:09:17Z</time>
      </trkpt>
      <trkpt lat="43.98539" lon="0.47371">
        <ele>165.7</ele>
        <time>2011-07-24T07:09:23Z</time>
      </trkpt>
      <trkpt lat="43.98525" lon="0.47332">
        <ele>163.5</ele>
        <time>2011-07-24T07:09:30Z</time>
      </trkpt>
      <trkpt lat="43.98516" lon="0.47311">
        <ele>162.4</ele>
        <time>2011-07-24T07:09:34Z</time>
      </trkpt>
      <trkpt lat="43.98505" lon="0.4727">
        <ele>160.4</ele>
        <time>2011-07-24T07:09:40Z</time>
      </trkpt>
      <trkpt lat="43.98494" lon="0.47231">
        <ele>158</ele>
        <time>2011-07-24T07:09:46Z</time>
      </trkpt>
      <trkpt lat="43.98476" lon="0.47189">
        <ele>155.2</ele>
        <time>2011-07-24T07:09:52Z</time>
      </trkpt>
      <trkpt lat="43.98459" lon="0.4715">
        <ele>153.1</ele>
        <time>2011-07-24T07:09:57Z</time>
      </trkpt>
      <trkpt lat="43.98442" lon="0.47105">
        <ele>152.2</ele>
        <time>2011-07-24T07:10:03Z</time>
      </trkpt>
      <trkpt lat="43.98426" lon="0.47064">
        <ele>150.1</ele>
        <time>2011-07-24T07:10:08Z</time>
      </trkpt>
      <trkpt lat="43.98398" lon="0.47029">
        <ele>147.7</ele>
        <time>2011-07-24T07:10:13Z</time>
      </trkpt>
      <trkpt lat="43.98362" lon="0.46982">
        <ele>146.9</ele>
        <time>2011-07-24T07:10:19Z</time>
      </trkpt>
      <trkpt lat="43.98341" lon="0.46944">
        <ele>146.4</ele>
        <time>2011-07-24T07:10:24Z</time>
      </trkpt>
      <trkpt lat="43.98327" lon="0.46901">
        <ele>144.8</ele>
        <time>2011-07-24T07:10:29Z</time>
      </trkpt>
      <trkpt lat="43.98316" lon="0.46862">
        <ele>143.8</ele>
        <time>2011-07-24T07:10:33Z</time>
      </trkpt>
      <trkpt lat="43.98303" lon="0.46818">
        <ele>142.5</ele>
        <time>2011-07-24T07:10:39Z</time>
      </trkpt>
      <trkpt lat="43.983" lon="0.46798">
        <ele>141.5</ele>
        <time>2011-07-24T07:10:44Z</time>
      </trkpt>
      <trkpt lat="43.98314" lon="0.46798">
        <ele>143</ele>
        <time>2011-07-24T07:10:50Z</time>
      </trkpt>
      <trkpt lat="43.98327" lon="0.46805">
        <ele>145</ele>
        <time>2011-07-24T07:10:55Z</time>
      </trkpt>
      <trkpt lat="43.98341" lon="0.46814">
        <ele>146.9</ele>
        <time>2011-07-24T07:11:01Z</time>
      </trkpt>
      <trkpt lat="43.98354" lon="0.46822">
        <ele>148.7</ele>
        <time>2011-07-24T07:11:07Z</time>
      </trkpt>
      <trkpt lat="43.98367" lon="0.46829">
        <ele>150.7</ele>
        <time>2011-07-24T07:11:13Z</time>
      </trkpt>
      <trkpt lat="43.98379" lon="0.46838">
        <ele>152.8</ele>
        <time>2011-07-24T07:11:19Z</time>
      </trkpt>
      <trkpt lat="43.98391" lon="0.46847">
        <ele>154.6</ele>
        <time>2011-07-24T07:11:25Z</time>
      </trkpt>
      <trkpt lat="43.98403" lon="0.46857">
        <ele>156.5</ele>
        <time>2011-07-24T07:11:31Z</time>
      </trkpt>
      <trkpt lat="43.98416" lon="0.46868">
        <ele>158.7</ele>
        <time>2011-07-24T07:11:37Z</time>
      </trkpt>
      <trkpt lat="43.98429" lon="0.46879">
        <ele>161.1</ele>
        <time>2011-07-24T07:11:43Z</time>
      </trkpt>
      <trkpt lat="43.98442" lon="0.4689">
        <ele>163.4</ele>
        <time>2011-07-24T07:11:49Z</time>
      </trkpt>
      <trkpt lat="43.98456" lon="0.46898">
        <ele>165.6</ele>
        <time>2011-07-24T07:11:55Z</time>
      </trkpt>
      <trkpt lat="43.98472" lon="0.469">
        <ele>167.7</ele>
        <time>2011-07-24T07:12:01Z</time>
      </trkpt>
      <trkpt lat="43.98488" lon="0.46902">
        <ele>169</ele>
        <time>2011-07-24T07:12:07Z</time>
      </trkpt>
      <trkpt lat="43.98502" lon="0.46905">
        <ele>169.8</ele>
        <time>2011-07-24T07:12:12Z</time>
      </trkpt>
      <trkpt lat="43.98518" lon="0.46907">
        <ele>170.2</ele>
        <time>2011-07-24T07:12:17Z</time>
      </trkpt>
      <trkpt lat="43.98534" lon="0.4691">
        <ele>170.5</ele>
        <time>2011-07-24T07:12:22Z</time>
      </trkpt>
      <trkpt lat="43.98549" lon="0.46902">
        <ele>170.3</ele>
        <time>2011-07-24T07:12:27Z</time>
      </trkpt>
      <trkpt lat="43.98558" lon="0.46888">
        <ele>169.9</ele>
        <time>2011-07-24T07:12:31Z</time>
      </trkpt>
      <trkpt lat="43.98569" lon="0.46847">
        <ele>169.3</ele>
        <time>2011-07-24T07:12:39Z</time>
      </trkpt>
      <trkpt lat="43.98573" lon="0.46826">
        <ele>168.5</ele>
        <time>2011-07-24T07:12:43Z</time>
      </trkpt>
      <trkpt lat="43.98582" lon="0.46781">
        <ele>166.7</ele>
        <time>2011-07-24T07:12:51Z</time>
      </trkpt>
      <trkpt lat="43.98585" lon="0.46757">
        <ele>166</ele>
        <time>2011-07-24T07:12:55Z</time>
      </trkpt>
      <trkpt lat="43.98586" lon="0.46708">
        <ele>165</ele>
        <time>2011-07-24T07:13:03Z</time>
      </trkpt>
      <trkpt lat="43.98586" lon="0.46688">
        <ele>164.6</ele>
        <time>2011-07-24T07:13:07Z</time>
      </trkpt>
      <trkpt lat="43.98582" lon="0.46643">
        <ele>163.7</ele>
        <time>2011-07-24T07:13:15Z</time>
      </trkpt>
      <trkpt lat="43.98575" lon="0.46602">
        <ele>162.6</ele>
        <time>2011-07-24T07:13:21Z</time>
      </trkpt>
      <trkpt lat="43.98571" lon="0.46559">
        <ele>161.2</ele>
        <time>2011-07-24T07:13:27Z</time>
      </trkpt>
      <trkpt lat="43.98571" lon="0.46516">
        <ele>160.1</ele>
        <time>2011-07-24T07:13:33Z</time>
      </trkpt>
      <trkpt lat="43.9858" lon="0.46474">
        <ele>160.5</ele>
        <time>2011-07-24T07:13:39Z</time>
      </trkpt>
      <trkpt lat="43.98593" lon="0.46433">
        <ele>161.5</ele>
        <time>2011-07-24T07:13:45Z</time>
      </trkpt>
      <trkpt lat="43.98605" lon="0.46393">
        <ele>163</ele>
        <time>2011-07-24T07:13:53Z</time>
      </trkpt>
      <trkpt lat="43.98618" lon="0.4635">
        <ele>163.4</ele>
        <time>2011-07-24T07:14:00Z</time>
      </trkpt>
      <trkpt lat="43.98629" lon="0.46312">
        <ele>163.4</ele>
        <time>2011-07-24T07:14:06Z</time>
      </trkpt>
      <trkpt lat="43.9864" lon="0.46272">
        <ele>163.1</ele>
        <time>2011-07-24T07:14:11Z</time>
      </trkpt>
      <trkpt lat="43.98659" lon="0.46228">
        <ele>162.3</ele>
        <time>2011-07-24T07:14:17Z</time>
      </trkpt>
      <trkpt lat="43.98675" lon="0.46193">
        <ele>162.6</ele>
        <time>2011-07-24T07:14:23Z</time>
      </trkpt>
      <trkpt lat="43.9869" lon="0.46154">
        <ele>162.3</ele>
        <time>2011-07-24T07:14:29Z</time>
      </trkpt>
      <trkpt lat="43.98705" lon="0.46112">
        <ele>161.4</ele>
        <time>2011-07-24T07:14:35Z</time>
      </trkpt>
      <trkpt lat="43.98722" lon="0.46064">
        <ele>159.9</ele>
        <time>2011-07-24T07:14:41Z</time>
      </trkpt>
      <trkpt lat="43.98739" lon="0.46014">
        <ele>157.2</ele>
        <time>2011-07-24T07:14:47Z</time>
      </trkpt>
      <trkpt lat="43.98753" lon="0.45974">
        <ele>154.9</ele>
        <time>2011-07-24T07:14:53Z</time>
      </trkpt>
      <trkpt lat="43.98767" lon="0.4593">
        <ele>152.7</ele>
        <time>2011-07-24T07:15:01Z</time>
      </trkpt>
      <trkpt lat="43.9878" lon="0.45894">
        <ele>151</ele>
        <time>2011-07-24T07:15:10Z</time>
      </trkpt>
      <trkpt lat="43.98791" lon="0.45854">
        <ele>150.2</ele>
        <time>2011-07-24T07:15:18Z</time>
      </trkpt>
      <trkpt lat="43.98804" lon="0.45818">
        <ele>148.3</ele>
        <time>2011-07-24T07:15:26Z</time>
      </trkpt>
      <trkpt lat="43.98814" lon="0.458">
        <ele>147.7</ele>
        <time>2011-07-24T07:15:31Z</time>
      </trkpt>
      <trkpt lat="43.98802" lon="0.45755">
        <ele>145.6</ele>
        <time>2011-07-24T07:15:38Z</time>
      </trkpt>
      <trkpt lat="43.98782" lon="0.45723">
        <ele>142.6</ele>
        <time>2011-07-24T07:15:44Z</time>
      </trkpt>
      <trkpt lat="43.9876" lon="0.45696">
        <ele>137.4</ele>
        <time>2011-07-24T07:15:49Z</time>
      </trkpt>
      <trkpt lat="43.98732" lon="0.45671">
        <ele>130</ele>
        <time>2011-07-24T07:15:56Z</time>
      </trkpt>
      <trkpt lat="43.98697" lon="0.45657">
        <ele>123.1</ele>
        <time>2011-07-24T07:16:02Z</time>
      </trkpt>
      <trkpt lat="43.98668" lon="0.4562">
        <ele>118.3</ele>
        <time>2011-07-24T07:16:08Z</time>
      </trkpt>
      <trkpt lat="43.98637" lon="0.45601">
        <ele>116.7</ele>
        <time>2011-07-24T07:16:14Z</time>
      </trkpt>
      <trkpt lat="43.98623" lon="0.45603">
        <ele>116.7</ele>
        <time>2011-07-24T07:16:24Z</time>
      </trkpt>
      <trkpt lat="43.98609" lon="0.45593">
        <ele>117.6</ele>
        <time>2011-07-24T07:16:31Z</time>
      </trkpt>
      <trkpt lat="43.98598" lon="0.45581">
        <ele>119.3</ele>
        <time>2011-07-24T07:16:36Z</time>
      </trkpt>
      <trkpt lat="43.98584" lon="0.4557">
        <ele>122</ele>
        <time>2011-07-24T07:16:41Z</time>
      </trkpt>
      <trkpt lat="43.98571" lon="0.45562">
        <ele>123.9</ele>
        <time>2011-07-24T07:16:46Z</time>
      </trkpt>
      <trkpt lat="43.98557" lon="0.45554">
        <ele>125.2</ele>
        <time>2011-07-24T07:16:51Z</time>
      </trkpt>
      <trkpt lat="43.98545" lon="0.45546">
        <ele>126.2</ele>
        <time>2011-07-24T07:16:56Z</time>
      </trkpt>
      <trkpt lat="43.98532" lon="0.45537">
        <ele>128</ele>
        <time>2011-07-24T07:17:01Z</time>
      </trkpt>
      <trkpt lat="43.98518" lon="0.45526">
        <ele>129.3</ele>
        <time>2011-07-24T07:17:06Z</time>
      </trkpt>
      <trkpt lat="43.98506" lon="0.45516">
        <ele>131.9</ele>
        <time>2011-07-24T07:17:11Z</time>
      </trkpt>
      <trkpt lat="43.98493" lon="0.45506">
        <ele>135.6</ele>
        <time>2011-07-24T07:17:17Z</time>
      </trkpt>
      <trkpt lat="43.98481" lon="0.45495">
        <ele>138.6</ele>
        <time>2011-07-24T07:17:23Z</time>
      </trkpt>
      <trkpt lat="43.98468" lon="0.45484">
        <ele>141.7</ele>
        <time>2011-07-24T07:17:30Z</time>
      </trkpt>
      <trkpt lat="43.98457" lon="0.45472">
        <ele>144.2</ele>
        <time>2011-07-24T07:17:36Z</time>
      </trkpt>
      <trkpt lat="43.98446" lon="0.45459">
        <ele>146.8</ele>
        <time>2011-07-24T07:17:43Z</time>
      </trkpt>
      <trkpt lat="43.98435" lon="0.45443">
        <ele>150</ele>
        <time>2011-07-24T07:17:50Z</time>
      </trkpt>
      <trkpt lat="43.9842" lon="0.45441">
        <ele>152.5</ele>
        <time>2011-07-24T07:17:59Z</time>
      </trkpt>
      <trkpt lat="43.98406" lon="0.45447">
        <ele>154</ele>
        <time>2011-07-24T07:18:08Z</time>
      </trkpt>
      <trkpt lat="43.98391" lon="0.45446">
        <ele>155.7</ele>
        <time>2011-07-24T07:18:17Z</time>
      </trkpt>
      <trkpt lat="43.98376" lon="0.45439">
        <ele>158</ele>
        <time>2011-07-24T07:18:24Z</time>
      </trkpt>
      <trkpt lat="43.98362" lon="0.45432">
        <ele>160.1</ele>
        <time>2011-07-24T07:18:31Z</time>
      </trkpt>
      <trkpt lat="43.98349" lon="0.45422">
        <ele>161.6</ele>
        <time>2011-07-24T07:18:38Z</time>
      </trkpt>
      <trkpt lat="43.98337" lon="0.45412">
        <ele>162.7</ele>
        <time>2011-07-24T07:18:45Z</time>
      </trkpt>
      <trkpt lat="43.98324" lon="0.45402">
        <ele>164.3</ele>
        <time>2011-07-24T07:18:52Z</time>
      </trkpt>
      <trkpt lat="43.98311" lon="0.45391">
        <ele>166.1</ele>
        <time>2011-07-24T07:18:59Z</time>
      </trkpt>
      <trkpt lat="43.98298" lon="0.45379">
        <ele>165.4</ele>
        <time>2011-07-24T07:19:06Z</time>
      </trkpt>
      <trkpt lat="43.98286" lon="0.45369">
        <ele>165.1</ele>
        <time>2011-07-24T07:19:14Z</time>
      </trkpt>
      <trkpt lat="43.98272" lon="0.4537">
        <ele>165.2</ele>
        <time>2011-07-24T07:20:21Z</time>
      </trkpt>
      <trkpt lat="43.98259" lon="0.45373">
        <ele>165.3</ele>
        <time>2011-07-24T07:20:30Z</time>
      </trkpt>
      <trkpt lat="43.98244" lon="0.45374">
        <ele>164.4</ele>
        <time>2011-07-24T07:20:39Z</time>
      </trkpt>
      <trkpt lat="43.98231" lon="0.45372">
        <ele>162.8</ele>
        <time>2011-07-24T07:20:45Z</time>
      </trkpt>
      <trkpt lat="43.98218" lon="0.45366">
        <ele>160.7</ele>
        <time>2011-07-24T07:20:51Z</time>
      </trkpt>
      <trkpt lat="43.98205" lon="0.45356">
        <ele>158.2</ele>
        <time>2011-07-24T07:20:57Z</time>
      </trkpt>
      <trkpt lat="43.9819" lon="0.45346">
        <ele>156.8</ele>
        <time>2011-07-24T07:21:03Z</time>
      </trkpt>
      <trkpt lat="43.98164" lon="0.45334">
        <ele>153.5</ele>
        <time>2011-07-24T07:21:11Z</time>
      </trkpt>
      <trkpt lat="43.98148" lon="0.45327">
        <ele>150.6</ele>
        <time>2011-07-24T07:21:16Z</time>
      </trkpt>
      <trkpt lat="43.98118" lon="0.45316">
        <ele>144.7</ele>
        <time>2011-07-24T07:21:24Z</time>
      </trkpt>
      <trkpt lat="43.98087" lon="0.45314">
        <ele>141.8</ele>
        <time>2011-07-24T07:21:32Z</time>
      </trkpt>
      <trkpt lat="43.9807" lon="0.45315">
        <ele>141</ele>
        <time>2011-07-24T07:21:36Z</time>
      </trkpt>
      <trkpt lat="43.98055" lon="0.45314">
        <ele>140.1</ele>
        <time>2011-07-24T07:21:40Z</time>
      </trkpt>
      <trkpt lat="43.9803" lon="0.453">
        <ele>138.2</ele>
        <time>2011-07-24T07:21:49Z</time>
      </trkpt>
      <trkpt lat="43.9802" lon="0.45284">
        <ele>138</ele>
        <time>2011-07-24T07:21:56Z</time>
      </trkpt>
      <trkpt lat="43.9801" lon="0.453">
        <ele>138.4</ele>
        <time>2011-07-24T07:22:01Z</time>
      </trkpt>
      <trkpt lat="43.97997" lon="0.45305">
        <ele>138.7</ele>
        <time>2011-07-24T07:22:07Z</time>
      </trkpt>
      <trkpt lat="43.97982" lon="0.45301">
        <ele>137.2</ele>
        <time>2011-07-24T07:22:12Z</time>
      </trkpt>
      <trkpt lat="43.97966" lon="0.45297">
        <ele>134.1</ele>
        <time>2011-07-24T07:22:17Z</time>
      </trkpt>
      <trkpt lat="43.97936" lon="0.45288">
        <ele>128.4</ele>
        <time>2011-07-24T07:22:23Z</time>
      </trkpt>
      <trkpt lat="43.97901" lon="0.45295">
        <ele>125.2</ele>
        <time>2011-07-24T07:22:29Z</time>
      </trkpt>
      <trkpt lat="43.97864" lon="0.45313">
        <ele>121.1</ele>
        <time>2011-07-24T07:22:36Z</time>
      </trkpt>
      <trkpt lat="43.97841" lon="0.4531">
        <ele>117.8</ele>
        <time>2011-07-24T07:22:43Z</time>
      </trkpt>
      <trkpt lat="43.97812" lon="0.45297">
        <ele>114.6</ele>
        <time>2011-07-24T07:22:49Z</time>
      </trkpt>
      <trkpt lat="43.97779" lon="0.45285">
        <ele>110.8</ele>
        <time>2011-07-24T07:22:54Z</time>
      </trkpt>
      <trkpt lat="43.97747" lon="0.45277">
        <ele>107.5</ele>
        <time>2011-07-24T07:22:58Z</time>
      </trkpt>
      <trkpt lat="43.97701" lon="0.4527">
        <ele>105.3</ele>
        <time>2011-07-24T07:23:04Z</time>
      </trkpt>
      <trkpt lat="43.97665" lon="0.45265">
        <ele>104.5</ele>
        <time>2011-07-24T07:23:10Z</time>
      </trkpt>
      <trkpt lat="43.97633" lon="0.45253">
        <ele>105</ele>
        <time>2011-07-24T07:23:18Z</time>
      </trkpt>
      <trkpt lat="43.97619" lon="0.45248">
        <ele>105.4</ele>
        <time>2011-07-24T07:23:22Z</time>
      </trkpt>
      <trkpt lat="43.97606" lon="0.45243">
        <ele>105.5</ele>
        <time>2011-07-24T07:23:27Z</time>
      </trkpt>
      <trkpt lat="43.97591" lon="0.45242">
        <ele>105.5</ele>
        <time>2011-07-24T07:23:36Z</time>
      </trkpt>
      <trkpt lat="43.97576" lon="0.45237">
        <ele>105.5</ele>
        <time>2011-07-24T07:23:42Z</time>
      </trkpt>
      <trkpt lat="43.97561" lon="0.45232">
        <ele>105.6</ele>
        <time>2011-07-24T07:23:47Z</time>
      </trkpt>
      <trkpt lat="43.97527" lon="0.45224">
        <ele>106.3</ele>
        <time>2011-07-24T07:23:55Z</time>
      </trkpt>
      <trkpt lat="43.97498" lon="0.45207">
        <ele>106.7</ele>
        <time>2011-07-24T07:24:03Z</time>
      </trkpt>
      <trkpt lat="43.97484" lon="0.45198">
        <ele>106.9</ele>
        <time>2011-07-24T07:24:07Z</time>
      </trkpt>
      <trkpt lat="43.97469" lon="0.45188">
        <ele>107.1</ele>
        <time>2011-07-24T07:24:11Z</time>
      </trkpt>
      <trkpt lat="43.9744" lon="0.45169">
        <ele>107.3</ele>
        <time>2011-07-24T07:24:18Z</time>
      </trkpt>
      <trkpt lat="43.97424" lon="0.45158">
        <ele>107.2</ele>
        <time>2011-07-24T07:24:22Z</time>
      </trkpt>
      <trkpt lat="43.97394" lon="0.45143">
        <ele>107.1</ele>
        <time>2011-07-24T07:24:29Z</time>
      </trkpt>
      <trkpt lat="43.97364" lon="0.45149">
        <ele>107.5</ele>
        <time>2011-07-24T07:24:35Z</time>
      </trkpt>
      <trkpt lat="43.97335" lon="0.45163">
        <ele>108.2</ele>
        <time>2011-07-24T07:24:41Z</time>
      </trkpt>
      <trkpt lat="43.9731" lon="0.45182">
        <ele>108.8</ele>
        <time>2011-07-24T07:24:47Z</time>
      </trkpt>
      <trkpt lat="43.97285" lon="0.45203">
        <ele>109.7</ele>
        <time>2011-07-24T07:24:53Z</time>
      </trkpt>
      <trkpt lat="43.9726" lon="0.4522">
        <ele>110.5</ele>
        <time>2011-07-24T07:24:59Z</time>
      </trkpt>
      <trkpt lat="43.97233" lon="0.45237">
        <ele>110.7</ele>
        <time>2011-07-24T07:25:05Z</time>
      </trkpt>
      <trkpt lat="43.97206" lon="0.45257">
        <ele>110.9</ele>
        <time>2011-07-24T07:25:11Z</time>
      </trkpt>
      <trkpt lat="43.97184" lon="0.4528">
        <ele>111.6</ele>
        <time>2011-07-24T07:25:17Z</time>
      </trkpt>
      <trkpt lat="43.97157" lon="0.45301">
        <ele>112.1</ele>
        <time>2011-07-24T07:25:24Z</time>
      </trkpt>
      <trkpt lat="43.97128" lon="0.45313">
        <ele>112.3</ele>
        <time>2011-07-24T07:25:30Z</time>
      </trkpt>
      <trkpt lat="43.97094" lon="0.45329">
        <ele>111.8</ele>
        <time>2011-07-24T07:25:36Z</time>
      </trkpt>
      <trkpt lat="43.97063" lon="0.45337">
        <ele>111.1</ele>
        <time>2011-07-24T07:25:42Z</time>
      </trkpt>
      <trkpt lat="43.9705" lon="0.45294">
        <ele>107.9</ele>
        <time>2011-07-24T07:25:48Z</time>
      </trkpt>
      <trkpt lat="43.97023" lon="0.45261">
        <ele>106.3</ele>
        <time>2011-07-24T07:25:54Z</time>
      </trkpt>
      <trkpt lat="43.96988" lon="0.45252">
        <ele>106.6</ele>
        <time>2011-07-24T07:26:00Z</time>
      </trkpt>
      <trkpt lat="43.96954" lon="0.45259">
        <ele>106.8</ele>
        <time>2011-07-24T07:26:06Z</time>
      </trkpt>
      <trkpt lat="43.96921" lon="0.45264">
        <ele>106.7</ele>
        <time>2011-07-24T07:26:12Z</time>
      </trkpt>
      <trkpt lat="43.96895" lon="0.4528">
        <ele>106.5</ele>
        <time>2011-07-24T07:26:17Z</time>
      </trkpt>
      <trkpt lat="43.96878" lon="0.45318">
        <ele>106.4</ele>
        <time>2011-07-24T07:26:23Z</time>
      </trkpt>
      <trkpt lat="43.96867" lon="0.45351">
        <ele>106.8</ele>
        <time>2011-07-24T07:26:28Z</time>
      </trkpt>
      <trkpt lat="43.96844" lon="0.45381">
        <ele>106.9</ele>
        <time>2011-07-24T07:26:34Z</time>
      </trkpt>
      <trkpt lat="43.96819" lon="0.45408">
        <ele>106.4</ele>
        <time>2011-07-24T07:26:40Z</time>
      </trkpt>
      <trkpt lat="43.9679" lon="0.45443">
        <ele>105.8</ele>
        <time>2011-07-24T07:26:47Z</time>
      </trkpt>
      <trkpt lat="43.96765" lon="0.45474">
        <ele>105.7</ele>
        <time>2011-07-24T07:26:53Z</time>
      </trkpt>
      <trkpt lat="43.96743" lon="0.45506">
        <ele>106.3</ele>
        <time>2011-07-24T07:26:59Z</time>
      </trkpt>
      <trkpt lat="43.96726" lon="0.45544">
        <ele>106.5</ele>
        <time>2011-07-24T07:27:05Z</time>
      </trkpt>
      <trkpt lat="43.96715" lon="0.45569">
        <ele>106.6</ele>
        <time>2011-07-24T07:27:09Z</time>
      </trkpt>
      <trkpt lat="43.96703" lon="0.45596">
        <ele>106.8</ele>
        <time>2011-07-24T07:27:14Z</time>
      </trkpt>
      <trkpt lat="43.96682" lon="0.45621">
        <ele>107.3</ele>
        <time>2011-07-24T07:27:20Z</time>
      </trkpt>
      <trkpt lat="43.96655" lon="0.45629">
        <ele>107.9</ele>
        <time>2011-07-24T07:27:26Z</time>
      </trkpt>
      <trkpt lat="43.96626" lon="0.45636">
        <ele>107.9</ele>
        <time>2011-07-24T07:27:32Z</time>
      </trkpt>
      <trkpt lat="43.96597" lon="0.45643">
        <ele>108</ele>
        <time>2011-07-24T07:27:38Z</time>
      </trkpt>
      <trkpt lat="43.96569" lon="0.45649">
        <ele>108.1</ele>
        <time>2011-07-24T07:27:44Z</time>
      </trkpt>
      <trkpt lat="43.96539" lon="0.45662">
        <ele>107.9</ele>
        <time>2011-07-24T07:27:50Z</time>
      </trkpt>
      <trkpt lat="43.96511" lon="0.45681">
        <ele>107.3</ele>
        <time>2011-07-24T07:27:56Z</time>
      </trkpt>
      <trkpt lat="43.96483" lon="0.45701">
        <ele>106.9</ele>
        <time>2011-07-24T07:28:02Z</time>
      </trkpt>
      <trkpt lat="43.96456" lon="0.4572">
        <ele>106.8</ele>
        <time>2011-07-24T07:28:08Z</time>
      </trkpt>
      <trkpt lat="43.96431" lon="0.45742">
        <ele>107.1</ele>
        <time>2011-07-24T07:28:14Z</time>
      </trkpt>
      <trkpt lat="43.96407" lon="0.45766">
        <ele>107</ele>
        <time>2011-07-24T07:28:20Z</time>
      </trkpt>
      <trkpt lat="43.96384" lon="0.45791">
        <ele>106.9</ele>
        <time>2011-07-24T07:28:26Z</time>
      </trkpt>
      <trkpt lat="43.96361" lon="0.45817">
        <ele>107</ele>
        <time>2011-07-24T07:28:32Z</time>
      </trkpt>
      <trkpt lat="43.96342" lon="0.45847">
        <ele>108</ele>
        <time>2011-07-24T07:28:38Z</time>
      </trkpt>
      <trkpt lat="43.96324" lon="0.45877">
        <ele>109.4</ele>
        <time>2011-07-24T07:28:44Z</time>
      </trkpt>
      <trkpt lat="43.96302" lon="0.4591">
        <ele>112.5</ele>
        <time>2011-07-24T07:28:51Z</time>
      </trkpt>
      <trkpt lat="43.96275" lon="0.45918">
        <ele>114.4</ele>
        <time>2011-07-24T07:28:57Z</time>
      </trkpt>
      <trkpt lat="43.96245" lon="0.45919">
        <ele>115.4</ele>
        <time>2011-07-24T07:29:03Z</time>
      </trkpt>
      <trkpt lat="43.96216" lon="0.45926">
        <ele>116</ele>
        <time>2011-07-24T07:29:09Z</time>
      </trkpt>
      <trkpt lat="43.96191" lon="0.45941">
        <ele>116.1</ele>
        <time>2011-07-24T07:29:15Z</time>
      </trkpt>
      <trkpt lat="43.96165" lon="0.45962">
        <ele>116</ele>
        <time>2011-07-24T07:29:21Z</time>
      </trkpt>
      <trkpt lat="43.96139" lon="0.45986">
        <ele>116</ele>
        <time>2011-07-24T07:29:27Z</time>
      </trkpt>
      <trkpt lat="43.96115" lon="0.46015">
        <ele>115.9</ele>
        <time>2011-07-24T07:29:34Z</time>
      </trkpt>
      <trkpt lat="43.961" lon="0.46034">
        <ele>115.9</ele>
        <time>2011-07-24T07:29:39Z</time>
      </trkpt>
      <trkpt lat="43.96085" lon="0.46046">
        <ele>115.8</ele>
        <time>2011-07-24T07:29:43Z</time>
      </trkpt>
      <trkpt lat="43.96053" lon="0.4606">
        <ele>115.6</ele>
        <time>2011-07-24T07:29:49Z</time>
      </trkpt>
      <trkpt lat="43.96023" lon="0.46085">
        <ele>114.8</ele>
        <time>2011-07-24T07:29:55Z</time>
      </trkpt>
      <trkpt lat="43.95997" lon="0.46118">
        <ele>113.3</ele>
        <time>2011-07-24T07:30:01Z</time>
      </trkpt>
      <trkpt lat="43.95963" lon="0.46146">
        <ele>111.6</ele>
        <time>2011-07-24T07:30:07Z</time>
      </trkpt>
      <trkpt lat="43.95928" lon="0.46165">
        <ele>111.1</ele>
        <time>2011-07-24T07:30:13Z</time>
      </trkpt>
      <trkpt lat="43.95893" lon="0.46183">
        <ele>110.9</ele>
        <time>2011-07-24T07:30:19Z</time>
      </trkpt>
      <trkpt lat="43.95858" lon="0.46202">
        <ele>110.8</ele>
        <time>2011-07-24T07:30:25Z</time>
      </trkpt>
      <trkpt lat="43.95823" lon="0.46217">
        <ele>110.7</ele>
        <time>2011-07-24T07:30:31Z</time>
      </trkpt>
      <trkpt lat="43.9579" lon="0.46233">
        <ele>110.7</ele>
        <time>2011-07-24T07:30:37Z</time>
      </trkpt>
      <trkpt lat="43.95761" lon="0.46253">
        <ele>110.7</ele>
        <time>2011-07-24T07:30:43Z</time>
      </trkpt>
      <trkpt lat="43.95736" lon="0.46282">
        <ele>110.6</ele>
        <time>2011-07-24T07:30:49Z</time>
      </trkpt>
      <trkpt lat="43.95716" lon="0.46315">
        <ele>110.6</ele>
        <time>2011-07-24T07:30:55Z</time>
      </trkpt>
      <trkpt lat="43.95692" lon="0.46342">
        <ele>111.6</ele>
        <time>2011-07-24T07:31:02Z</time>
      </trkpt>
      <trkpt lat="43.95677" lon="0.46357">
        <ele>111.8</ele>
        <time>2011-07-24T07:31:06Z</time>
      </trkpt>
      <trkpt lat="43.95653" lon="0.46385">
        <ele>111.3</ele>
        <time>2011-07-24T07:31:11Z</time>
      </trkpt>
      <trkpt lat="43.95626" lon="0.46414">
        <ele>110.3</ele>
        <time>2011-07-24T07:31:16Z</time>
      </trkpt>
      <trkpt lat="43.956" lon="0.46443">
        <ele>109.9</ele>
        <time>2011-07-24T07:31:22Z</time>
      </trkpt>
      <trkpt lat="43.95573" lon="0.46472">
        <ele>109.8</ele>
        <time>2011-07-24T07:31:28Z</time>
      </trkpt>
      <trkpt lat="43.95547" lon="0.46496">
        <ele>109.7</ele>
        <time>2011-07-24T07:31:34Z</time>
      </trkpt>
      <trkpt lat="43.95517" lon="0.46521">
        <ele>109.7</ele>
        <time>2011-07-24T07:31:40Z</time>
      </trkpt>
      <trkpt lat="43.95488" lon="0.46546">
        <ele>109.6</ele>
        <time>2011-07-24T07:31:46Z</time>
      </trkpt>
      <trkpt lat="43.95462" lon="0.46575">
        <ele>109.7</ele>
        <time>2011-07-24T07:31:52Z</time>
      </trkpt>
      <trkpt lat="43.95435" lon="0.46603">
        <ele>109.8</ele>
        <time>2011-07-24T07:31:58Z</time>
      </trkpt>
      <trkpt lat="43.95408" lon="0.46625">
        <ele>110</ele>
        <time>2011-07-24T07:32:04Z</time>
      </trkpt>
      <trkpt lat="43.9538" lon="0.46645">
        <ele>111.1</ele>
        <time>2011-07-24T07:32:10Z</time>
      </trkpt>
      <trkpt lat="43.9535" lon="0.46664">
        <ele>111.3</ele>
        <time>2011-07-24T07:32:16Z</time>
      </trkpt>
      <trkpt lat="43.9532" lon="0.46684">
        <ele>111.4</ele>
        <time>2011-07-24T07:32:22Z</time>
      </trkpt>
      <trkpt lat="43.95291" lon="0.46703">
        <ele>111.4</ele>
        <time>2011-07-24T07:32:28Z</time>
      </trkpt>
      <trkpt lat="43.95261" lon="0.46721">
        <ele>111.3</ele>
        <time>2011-07-24T07:32:34Z</time>
      </trkpt>
      <trkpt lat="43.95231" lon="0.46742">
        <ele>111.3</ele>
        <time>2011-07-24T07:32:40Z</time>
      </trkpt>
      <trkpt lat="43.95206" lon="0.46774">
        <ele>111.2</ele>
        <time>2011-07-24T07:32:46Z</time>
      </trkpt>
      <trkpt lat="43.95183" lon="0.46805">
        <ele>111.2</ele>
        <time>2011-07-24T07:32:52Z</time>
      </trkpt>
      <trkpt lat="43.95159" lon="0.46836">
        <ele>111.1</ele>
        <time>2011-07-24T07:32:58Z</time>
      </trkpt>
      <trkpt lat="43.95139" lon="0.46869">
        <ele>111.1</ele>
        <time>2011-07-24T07:33:04Z</time>
      </trkpt>
      <trkpt lat="43.95119" lon="0.46904">
        <ele>111.1</ele>
        <time>2011-07-24T07:33:10Z</time>
      </trkpt>
      <trkpt lat="43.951" lon="0.4694">
        <ele>111</ele>
        <time>2011-07-24T07:33:16Z</time>
      </trkpt>
      <trkpt lat="43.95083" lon="0.46976">
        <ele>111.1</ele>
        <time>2011-07-24T07:33:22Z</time>
      </trkpt>
      <trkpt lat="43.95066" lon="0.4701">
        <ele>111.4</ele>
        <time>2011-07-24T07:33:28Z</time>
      </trkpt>
      <trkpt lat="43.95043" lon="0.47039">
        <ele>111.6</ele>
        <time>2011-07-24T07:33:34Z</time>
      </trkpt>
      <trkpt lat="43.95014" lon="0.47058">
        <ele>111.9</ele>
        <time>2011-07-24T07:33:40Z</time>
      </trkpt>
      <trkpt lat="43.94987" lon="0.47082">
        <ele>112.2</ele>
        <time>2011-07-24T07:33:46Z</time>
      </trkpt>
      <trkpt lat="43.94961" lon="0.47109">
        <ele>112.8</ele>
        <time>2011-07-24T07:33:52Z</time>
      </trkpt>
      <trkpt lat="43.94935" lon="0.47131">
        <ele>113.3</ele>
        <time>2011-07-24T07:33:58Z</time>
      </trkpt>
      <trkpt lat="43.9491" lon="0.47152">
        <ele>114</ele>
        <time>2011-07-24T07:34:04Z</time>
      </trkpt>
      <trkpt lat="43.94917" lon="0.47193">
        <ele>114.5</ele>
        <time>2011-07-24T07:34:12Z</time>
      </trkpt>
      <trkpt lat="43.94917" lon="0.47213">
        <ele>115.3</ele>
        <time>2011-07-24T07:34:16Z</time>
      </trkpt>
      <trkpt lat="43.94898" lon="0.4725">
        <ele>115.7</ele>
        <time>2011-07-24T07:34:23Z</time>
      </trkpt>
      <trkpt lat="43.94886" lon="0.47289">
        <ele>115.7</ele>
        <time>2011-07-24T07:34:29Z</time>
      </trkpt>
      <trkpt lat="43.94874" lon="0.47329">
        <ele>115.6</ele>
        <time>2011-07-24T07:34:35Z</time>
      </trkpt>
      <trkpt lat="43.94862" lon="0.47367">
        <ele>115.6</ele>
        <time>2011-07-24T07:34:41Z</time>
      </trkpt>
      <trkpt lat="43.9485" lon="0.47403">
        <ele>115.5</ele>
        <time>2011-07-24T07:34:47Z</time>
      </trkpt>
      <trkpt lat="43.94838" lon="0.47438">
        <ele>115.5</ele>
        <time>2011-07-24T07:34:53Z</time>
      </trkpt>
      <trkpt lat="43.9483" lon="0.4746">
        <ele>115.5</ele>
        <time>2011-07-24T07:34:57Z</time>
      </trkpt>
      <trkpt lat="43.9482" lon="0.4748">
        <ele>115.5</ele>
        <time>2011-07-24T07:35:01Z</time>
      </trkpt>
      <trkpt lat="43.94803" lon="0.47517">
        <ele>115.5</ele>
        <time>2011-07-24T07:35:09Z</time>
      </trkpt>
      <trkpt lat="43.94822" lon="0.47553">
        <ele>116</ele>
        <time>2011-07-24T07:35:17Z</time>
      </trkpt>
      <trkpt lat="43.94833" lon="0.4757">
        <ele>117.2</ele>
        <time>2011-07-24T07:35:22Z</time>
      </trkpt>
      <trkpt lat="43.94844" lon="0.47584">
        <ele>118.5</ele>
        <time>2011-07-24T07:35:28Z</time>
      </trkpt>
      <trkpt lat="43.94855" lon="0.47596">
        <ele>120.6</ele>
        <time>2011-07-24T07:35:34Z</time>
      </trkpt>
      <trkpt lat="43.94865" lon="0.47609">
        <ele>123.3</ele>
        <time>2011-07-24T07:35:40Z</time>
      </trkpt>
      <trkpt lat="43.94872" lon="0.47628">
        <ele>126.2</ele>
        <time>2011-07-24T07:35:46Z</time>
      </trkpt>
      <trkpt lat="43.94874" lon="0.47649">
        <ele>128.1</ele>
        <time>2011-07-24T07:35:51Z</time>
      </trkpt>
      <trkpt lat="43.94876" lon="0.47668">
        <ele>129.2</ele>
        <time>2011-07-24T07:35:56Z</time>
      </trkpt>
      <trkpt lat="43.94878" lon="0.47688">
        <ele>129.9</ele>
        <time>2011-07-24T07:36:02Z</time>
      </trkpt>
      <trkpt lat="43.9488" lon="0.47708">
        <ele>131.3</ele>
        <time>2011-07-24T07:36:08Z</time>
      </trkpt>
      <trkpt lat="43.94881" lon="0.47728">
        <ele>132.5</ele>
        <time>2011-07-24T07:36:14Z</time>
      </trkpt>
      <trkpt lat="43.9488" lon="0.47748">
        <ele>133.2</ele>
        <time>2011-07-24T07:36:20Z</time>
      </trkpt>
      <trkpt lat="43.94875" lon="0.47769">
        <ele>134.7</ele>
        <time>2011-07-24T07:36:26Z</time>
      </trkpt>
      <trkpt lat="43.94869" lon="0.47789">
        <ele>135.9</ele>
        <time>2011-07-24T07:36:32Z</time>
      </trkpt>
      <trkpt lat="43.94861" lon="0.47807">
        <ele>136.9</ele>
        <time>2011-07-24T07:36:38Z</time>
      </trkpt>
      <trkpt lat="43.94854" lon="0.47825">
        <ele>138.4</ele>
        <time>2011-07-24T07:36:44Z</time>
      </trkpt>
      <trkpt lat="43.94844" lon="0.47838">
        <ele>138.8</ele>
        <time>2011-07-24T07:36:50Z</time>
      </trkpt>
      <trkpt lat="43.94833" lon="0.47852">
        <ele>139.9</ele>
        <time>2011-07-24T07:36:56Z</time>
      </trkpt>
      <trkpt lat="43.94825" lon="0.4787">
        <ele>140.3</ele>
        <time>2011-07-24T07:37:04Z</time>
      </trkpt>
      <trkpt lat="43.94837" lon="0.47883">
        <ele>140.3</ele>
        <time>2011-07-24T07:37:10Z</time>
      </trkpt>
      <trkpt lat="43.94851" lon="0.47893">
        <ele>140.5</ele>
        <time>2011-07-24T07:37:15Z</time>
      </trkpt>
      <trkpt lat="43.94866" lon="0.47904">
        <ele>142</ele>
        <time>2011-07-24T07:37:20Z</time>
      </trkpt>
      <trkpt lat="43.94881" lon="0.47914">
        <ele>142.6</ele>
        <time>2011-07-24T07:37:25Z</time>
      </trkpt>
      <trkpt lat="43.94895" lon="0.47924">
        <ele>143.9</ele>
        <time>2011-07-24T07:37:30Z</time>
      </trkpt>
      <trkpt lat="43.94908" lon="0.47931">
        <ele>144.6</ele>
        <time>2011-07-24T07:37:35Z</time>
      </trkpt>
      <trkpt lat="43.94923" lon="0.47939">
        <ele>146.1</ele>
        <time>2011-07-24T07:37:41Z</time>
      </trkpt>
      <trkpt lat="43.94937" lon="0.47948">
        <ele>147.4</ele>
        <time>2011-07-24T07:37:47Z</time>
      </trkpt>
      <trkpt lat="43.9495" lon="0.47955">
        <ele>147.8</ele>
        <time>2011-07-24T07:37:58Z</time>
      </trkpt>
      <trkpt lat="43.94963" lon="0.47966">
        <ele>147.8</ele>
        <time>2011-07-24T07:38:04Z</time>
      </trkpt>
      <trkpt lat="43.94977" lon="0.47973">
        <ele>146.5</ele>
        <time>2011-07-24T07:38:09Z</time>
      </trkpt>
      <trkpt lat="43.94989" lon="0.47982">
        <ele>145.2</ele>
        <time>2011-07-24T07:38:15Z</time>
      </trkpt>
      <trkpt lat="43.94974" lon="0.47981">
        <ele>146.3</ele>
        <time>2011-07-24T07:38:24Z</time>
      </trkpt>
      <trkpt lat="43.9496" lon="0.4797">
        <ele>147.8</ele>
        <time>2011-07-24T07:38:29Z</time>
      </trkpt>
      <trkpt lat="43.94946" lon="0.4796">
        <ele>147.8</ele>
        <time>2011-07-24T07:38:34Z</time>
      </trkpt>
      <trkpt lat="43.94928" lon="0.47992">
        <ele>148.1</ele>
        <time>2011-07-24T07:38:42Z</time>
      </trkpt>
      <trkpt lat="43.94912" lon="0.4803">
        <ele>149.3</ele>
        <time>2011-07-24T07:38:50Z</time>
      </trkpt>
      <trkpt lat="43.94898" lon="0.48066">
        <ele>150</ele>
        <time>2011-07-24T07:38:58Z</time>
      </trkpt>
      <trkpt lat="43.94887" lon="0.4811">
        <ele>151.3</ele>
        <time>2011-07-24T07:39:06Z</time>
      </trkpt>
      <trkpt lat="43.9488" lon="0.48154">
        <ele>151.8</ele>
        <time>2011-07-24T07:39:14Z</time>
      </trkpt>
      <trkpt lat="43.94876" lon="0.48176">
        <ele>152.3</ele>
        <time>2011-07-24T07:39:19Z</time>
      </trkpt>
      <trkpt lat="43.94872" lon="0.48195">
        <ele>153.1</ele>
        <time>2011-07-24T07:39:24Z</time>
      </trkpt>
      <trkpt lat="43.94868" lon="0.48215">
        <ele>153.5</ele>
        <time>2011-07-24T07:39:29Z</time>
      </trkpt>
      <trkpt lat="43.94863" lon="0.48235">
        <ele>153.9</ele>
        <time>2011-07-24T07:39:34Z</time>
      </trkpt>
      <trkpt lat="43.94857" lon="0.48253">
        <ele>154.7</ele>
        <time>2011-07-24T07:39:39Z</time>
      </trkpt>
      <trkpt lat="43.94851" lon="0.48271">
        <ele>155.5</ele>
        <time>2011-07-24T07:39:44Z</time>
      </trkpt>
      <trkpt lat="43.94845" lon="0.48292">
        <ele>156.3</ele>
        <time>2011-07-24T07:39:49Z</time>
      </trkpt>
      <trkpt lat="43.94839" lon="0.48314">
        <ele>157.3</ele>
        <time>2011-07-24T07:39:54Z</time>
      </trkpt>
      <trkpt lat="43.94835" lon="0.48332">
        <ele>157.5</ele>
        <time>2011-07-24T07:39:58Z</time>
      </trkpt>
      <trkpt lat="43.9483" lon="0.48372">
        <ele>158.8</ele>
        <time>2011-07-24T07:40:06Z</time>
      </trkpt>
      <trkpt lat="43.94828" lon="0.48393">
        <ele>159.1</ele>
        <time>2011-07-24T07:40:10Z</time>
      </trkpt>
      <trkpt lat="43.94828" lon="0.48436">
        <ele>159.7</ele>
        <time>2011-07-24T07:40:18Z</time>
      </trkpt>
      <trkpt lat="43.94829" lon="0.48479">
        <ele>160.8</ele>
        <time>2011-07-24T07:40:27Z</time>
      </trkpt>
      <trkpt lat="43.94827" lon="0.485">
        <ele>161</ele>
        <time>2011-07-24T07:40:32Z</time>
      </trkpt>
      <trkpt lat="43.94823" lon="0.4852">
        <ele>161.9</ele>
        <time>2011-07-24T07:40:37Z</time>
      </trkpt>
      <trkpt lat="43.94814" lon="0.48559">
        <ele>164.2</ele>
        <time>2011-07-24T07:40:45Z</time>
      </trkpt>
      <trkpt lat="43.94807" lon="0.48577">
        <ele>165.1</ele>
        <time>2011-07-24T07:40:49Z</time>
      </trkpt>
      <trkpt lat="43.94789" lon="0.48615">
        <ele>166.4</ele>
        <time>2011-07-24T07:40:57Z</time>
      </trkpt>
      <trkpt lat="43.94774" lon="0.4865">
        <ele>166.9</ele>
        <time>2011-07-24T07:41:03Z</time>
      </trkpt>
      <trkpt lat="43.94759" lon="0.48684">
        <ele>166.6</ele>
        <time>2011-07-24T07:41:09Z</time>
      </trkpt>
      <trkpt lat="43.94741" lon="0.48724">
        <ele>166.3</ele>
        <time>2011-07-24T07:41:16Z</time>
      </trkpt>
      <trkpt lat="43.94726" lon="0.48758">
        <ele>166.1</ele>
        <time>2011-07-24T07:41:22Z</time>
      </trkpt>
      <trkpt lat="43.94716" lon="0.48794">
        <ele>166.7</ele>
        <time>2011-07-24T07:41:28Z</time>
      </trkpt>
      <trkpt lat="43.9471" lon="0.48836">
        <ele>167.2</ele>
        <time>2011-07-24T07:41:35Z</time>
      </trkpt>
      <trkpt lat="43.94707" lon="0.48858">
        <ele>167.4</ele>
        <time>2011-07-24T07:41:39Z</time>
      </trkpt>
      <trkpt lat="43.94701" lon="0.48899">
        <ele>167.8</ele>
        <time>2011-07-24T07:41:45Z</time>
      </trkpt>
      <trkpt lat="43.94699" lon="0.48939">
        <ele>168</ele>
        <time>2011-07-24T07:41:51Z</time>
      </trkpt>
      <trkpt lat="43.94713" lon="0.48948">
        <ele>167.3</ele>
        <time>2011-07-24T07:41:55Z</time>
      </trkpt>
      <trkpt lat="43.94748" lon="0.48951">
        <ele>165.3</ele>
        <time>2011-07-24T07:42:02Z</time>
      </trkpt>
      <trkpt lat="43.94772" lon="0.48951">
        <ele>163.9</ele>
        <time>2011-07-24T07:42:06Z</time>
      </trkpt>
      <trkpt lat="43.94809" lon="0.4895">
        <ele>161.3</ele>
        <time>2011-07-24T07:42:12Z</time>
      </trkpt>
      <trkpt lat="43.94843" lon="0.48943">
        <ele>159.2</ele>
        <time>2011-07-24T07:42:18Z</time>
      </trkpt>
      <trkpt lat="43.94873" lon="0.48927">
        <ele>157.4</ele>
        <time>2011-07-24T07:42:24Z</time>
      </trkpt>
      <trkpt lat="43.94902" lon="0.48934">
        <ele>155.8</ele>
        <time>2011-07-24T07:42:30Z</time>
      </trkpt>
      <trkpt lat="43.94936" lon="0.48946">
        <ele>153.4</ele>
        <time>2011-07-24T07:42:36Z</time>
      </trkpt>
      <trkpt lat="43.9497" lon="0.48958">
        <ele>151</ele>
        <time>2011-07-24T07:42:41Z</time>
      </trkpt>
      <trkpt lat="43.94998" lon="0.48971">
        <ele>148.5</ele>
        <time>2011-07-24T07:42:45Z</time>
      </trkpt>
      <trkpt lat="43.95028" lon="0.48985">
        <ele>145.9</ele>
        <time>2011-07-24T07:42:49Z</time>
      </trkpt>
      <trkpt lat="43.95069" lon="0.49009">
        <ele>143.1</ele>
        <time>2011-07-24T07:42:54Z</time>
      </trkpt>
      <trkpt lat="43.95111" lon="0.49036">
        <ele>142.5</ele>
        <time>2011-07-24T07:43:00Z</time>
      </trkpt>
      <trkpt lat="43.95147" lon="0.49037">
        <ele>143.3</ele>
        <time>2011-07-24T07:43:06Z</time>
      </trkpt>
      <trkpt lat="43.95177" lon="0.49025">
        <ele>145.6</ele>
        <time>2011-07-24T07:43:13Z</time>
      </trkpt>
      <trkpt lat="43.95206" lon="0.49015">
        <ele>148.4</ele>
        <time>2011-07-24T07:43:21Z</time>
      </trkpt>
      <trkpt lat="43.95233" lon="0.49007">
        <ele>151.9</ele>
        <time>2011-07-24T07:43:29Z</time>
      </trkpt>
      <trkpt lat="43.95247" lon="0.49004">
        <ele>153.7</ele>
        <time>2011-07-24T07:43:33Z</time>
      </trkpt>
      <trkpt lat="43.95263" lon="0.49002">
        <ele>154.2</ele>
        <time>2011-07-24T07:43:38Z</time>
      </trkpt>
      <trkpt lat="43.95279" lon="0.49002">
        <ele>153.5</ele>
        <time>2011-07-24T07:43:42Z</time>
      </trkpt>
      <trkpt lat="43.95312" lon="0.48998">
        <ele>151.8</ele>
        <time>2011-07-24T07:43:47Z</time>
      </trkpt>
      <trkpt lat="43.95349" lon="0.48992">
        <ele>150.6</ele>
        <time>2011-07-24T07:43:53Z</time>
      </trkpt>
      <trkpt lat="43.95383" lon="0.48988">
        <ele>150.5</ele>
        <time>2011-07-24T07:43:59Z</time>
      </trkpt>
      <trkpt lat="43.95412" lon="0.48988">
        <ele>151.6</ele>
        <time>2011-07-24T07:44:05Z</time>
      </trkpt>
      <trkpt lat="43.95427" lon="0.48997">
        <ele>153.5</ele>
        <time>2011-07-24T07:44:09Z</time>
      </trkpt>
      <trkpt lat="43.95454" lon="0.49015">
        <ele>155.7</ele>
        <time>2011-07-24T07:44:17Z</time>
      </trkpt>
      <trkpt lat="43.95467" lon="0.49023">
        <ele>156.7</ele>
        <time>2011-07-24T07:44:22Z</time>
      </trkpt>
      <trkpt lat="43.9548" lon="0.49032">
        <ele>158</ele>
        <time>2011-07-24T07:44:28Z</time>
      </trkpt>
      <trkpt lat="43.95494" lon="0.4904">
        <ele>159.5</ele>
        <time>2011-07-24T07:44:34Z</time>
      </trkpt>
      <trkpt lat="43.95507" lon="0.49047">
        <ele>160.9</ele>
        <time>2011-07-24T07:44:40Z</time>
      </trkpt>
      <trkpt lat="43.95521" lon="0.49055">
        <ele>162</ele>
        <time>2011-07-24T07:44:46Z</time>
      </trkpt>
      <trkpt lat="43.95535" lon="0.49063">
        <ele>162.8</ele>
        <time>2011-07-24T07:44:53Z</time>
      </trkpt>
      <trkpt lat="43.95548" lon="0.49072">
        <ele>164</ele>
        <time>2011-07-24T07:45:00Z</time>
      </trkpt>
      <trkpt lat="43.95561" lon="0.49083">
        <ele>166</ele>
        <time>2011-07-24T07:45:07Z</time>
      </trkpt>
      <trkpt lat="43.95574" lon="0.49093">
        <ele>167.9</ele>
        <time>2011-07-24T07:45:13Z</time>
      </trkpt>
      <trkpt lat="43.95587" lon="0.49105">
        <ele>169.8</ele>
        <time>2011-07-24T07:45:19Z</time>
      </trkpt>
      <trkpt lat="43.95599" lon="0.49113">
        <ele>171</ele>
        <time>2011-07-24T07:45:25Z</time>
      </trkpt>
      <trkpt lat="43.95613" lon="0.49119">
        <ele>171.6</ele>
        <time>2011-07-24T07:45:32Z</time>
      </trkpt>
      <trkpt lat="43.95627" lon="0.49123">
        <ele>170</ele>
        <time>2011-07-24T07:45:37Z</time>
      </trkpt>
      <trkpt lat="43.95661" lon="0.49122">
        <ele>165.7</ele>
        <time>2011-07-24T07:45:43Z</time>
      </trkpt>
      <trkpt lat="43.95696" lon="0.4912">
        <ele>162.4</ele>
        <time>2011-07-24T07:45:48Z</time>
      </trkpt>
      <trkpt lat="43.95727" lon="0.49119">
        <ele>160.1</ele>
        <time>2011-07-24T07:45:52Z</time>
      </trkpt>
      <trkpt lat="43.95759" lon="0.49116">
        <ele>158.4</ele>
        <time>2011-07-24T07:45:56Z</time>
      </trkpt>
      <trkpt lat="43.95809" lon="0.4911">
        <ele>155.3</ele>
        <time>2011-07-24T07:46:02Z</time>
      </trkpt>
      <trkpt lat="43.95862" lon="0.49106">
        <ele>151.4</ele>
        <time>2011-07-24T07:46:08Z</time>
      </trkpt>
      <trkpt lat="43.95895" lon="0.49101">
        <ele>148.4</ele>
        <time>2011-07-24T07:46:12Z</time>
      </trkpt>
      <trkpt lat="43.95925" lon="0.49105">
        <ele>146.6</ele>
        <time>2011-07-24T07:46:16Z</time>
      </trkpt>
      <trkpt lat="43.95955" lon="0.49118">
        <ele>148.8</ele>
        <time>2011-07-24T07:46:27Z</time>
      </trkpt>
      <trkpt lat="43.95968" lon="0.49123">
        <ele>151.6</ele>
        <time>2011-07-24T07:46:36Z</time>
      </trkpt>
      <trkpt lat="43.95983" lon="0.49129">
        <ele>154.7</ele>
        <time>2011-07-24T07:46:45Z</time>
      </trkpt>
      <trkpt lat="43.95996" lon="0.49136">
        <ele>156.7</ele>
        <time>2011-07-24T07:46:52Z</time>
      </trkpt>
      <trkpt lat="43.96009" lon="0.49145">
        <ele>158.2</ele>
        <time>2011-07-24T07:46:59Z</time>
      </trkpt>
      <trkpt lat="43.96019" lon="0.49157">
        <ele>159.3</ele>
        <time>2011-07-24T07:47:06Z</time>
      </trkpt>
      <trkpt lat="43.96028" lon="0.49171">
        <ele>160.9</ele>
        <time>2011-07-24T07:47:13Z</time>
      </trkpt>
      <trkpt lat="43.96038" lon="0.49185">
        <ele>161.9</ele>
        <time>2011-07-24T07:47:20Z</time>
      </trkpt>
      <trkpt lat="43.96048" lon="0.49202">
        <ele>163.1</ele>
        <time>2011-07-24T07:47:28Z</time>
      </trkpt>
      <trkpt lat="43.96056" lon="0.49217">
        <ele>164.2</ele>
        <time>2011-07-24T07:47:35Z</time>
      </trkpt>
      <trkpt lat="43.96065" lon="0.49232">
        <ele>165.1</ele>
        <time>2011-07-24T07:47:43Z</time>
      </trkpt>
      <trkpt lat="43.96076" lon="0.49248">
        <ele>165.3</ele>
        <time>2011-07-24T07:47:49Z</time>
      </trkpt>
      <trkpt lat="43.96088" lon="0.49264">
        <ele>165</ele>
        <time>2011-07-24T07:47:54Z</time>
      </trkpt>
      <trkpt lat="43.96098" lon="0.49281">
        <ele>164.8</ele>
        <time>2011-07-24T07:47:58Z</time>
      </trkpt>
      <trkpt lat="43.96112" lon="0.4932">
        <ele>166.2</ele>
        <time>2011-07-24T07:48:06Z</time>
      </trkpt>
      <trkpt lat="43.96118" lon="0.49338">
        <ele>167.3</ele>
        <time>2011-07-24T07:48:10Z</time>
      </trkpt>
      <trkpt lat="43.96137" lon="0.49366">
        <ele>168.3</ele>
        <time>2011-07-24T07:48:18Z</time>
      </trkpt>
      <trkpt lat="43.96152" lon="0.49371">
        <ele>168.8</ele>
        <time>2011-07-24T07:48:23Z</time>
      </trkpt>
      <trkpt lat="43.96168" lon="0.49377">
        <ele>169.4</ele>
        <time>2011-07-24T07:48:28Z</time>
      </trkpt>
      <trkpt lat="43.96182" lon="0.49385">
        <ele>170.3</ele>
        <time>2011-07-24T07:48:33Z</time>
      </trkpt>
      <trkpt lat="43.96195" lon="0.49393">
        <ele>171.2</ele>
        <time>2011-07-24T07:48:39Z</time>
      </trkpt>
      <trkpt lat="43.96209" lon="0.49401">
        <ele>172</ele>
        <time>2011-07-24T07:48:47Z</time>
      </trkpt>
      <trkpt lat="43.96222" lon="0.49407">
        <ele>173.5</ele>
        <time>2011-07-24T07:48:54Z</time>
      </trkpt>
      <trkpt lat="43.96236" lon="0.49411">
        <ele>175.5</ele>
        <time>2011-07-24T07:49:02Z</time>
      </trkpt>
      <trkpt lat="43.9625" lon="0.49416">
        <ele>177.3</ele>
        <time>2011-07-24T07:49:09Z</time>
      </trkpt>
      <trkpt lat="43.96267" lon="0.49422">
        <ele>180.2</ele>
        <time>2011-07-24T07:49:18Z</time>
      </trkpt>
      <trkpt lat="43.96281" lon="0.49428">
        <ele>181.5</ele>
        <time>2011-07-24T07:49:25Z</time>
      </trkpt>
      <trkpt lat="43.96288" lon="0.49432">
        <ele>182.6</ele>
        <time>2011-07-24T07:49:29Z</time>
      </trkpt>
      <trkpt lat="43.96303" lon="0.49438">
        <ele>185.1</ele>
        <time>2011-07-24T07:49:36Z</time>
      </trkpt>
      <trkpt lat="43.96318" lon="0.49445">
        <ele>186.3</ele>
        <time>2011-07-24T07:49:43Z</time>
      </trkpt>
      <trkpt lat="43.96331" lon="0.49452">
        <ele>188.1</ele>
        <time>2011-07-24T07:49:49Z</time>
      </trkpt>
      <trkpt lat="43.96345" lon="0.49458">
        <ele>189.4</ele>
        <time>2011-07-24T07:49:56Z</time>
      </trkpt>
      <trkpt lat="43.96359" lon="0.49465">
        <ele>191</ele>
        <time>2011-07-24T07:50:02Z</time>
      </trkpt>
      <trkpt lat="43.96373" lon="0.49469">
        <ele>193.2</ele>
        <time>2011-07-24T07:50:09Z</time>
      </trkpt>
      <trkpt lat="43.96388" lon="0.49468">
        <ele>196.2</ele>
        <time>2011-07-24T07:50:16Z</time>
      </trkpt>
      <trkpt lat="43.96404" lon="0.49471">
        <ele>198.4</ele>
        <time>2011-07-24T07:50:24Z</time>
      </trkpt>
      <trkpt lat="43.96418" lon="0.49482">
        <ele>200.7</ele>
        <time>2011-07-24T07:50:36Z</time>
      </trkpt>
      <trkpt lat="43.96418" lon="0.49484">
        <ele>200.9</ele>
        <time>2011-07-24T07:50:40Z</time>
      </trkpt>
      <trkpt lat="43.96416" lon="0.49465">
        <ele>201</ele>
        <time>2011-07-24T07:52:40Z</time>
      </trkpt>
      <trkpt lat="43.96423" lon="0.4948">
        <ele>201.3</ele>
        <time>2011-07-24T07:53:41Z</time>
      </trkpt>
      <trkpt lat="43.96421" lon="0.495">
        <ele>201.6</ele>
        <time>2011-07-24T07:53:50Z</time>
      </trkpt>
      <trkpt lat="43.96419" lon="0.4952">
        <ele>201.9</ele>
        <time>2011-07-24T07:53:59Z</time>
      </trkpt>
      <trkpt lat="43.96416" lon="0.49538">
        <ele>202.2</ele>
        <time>2011-07-24T07:54:05Z</time>
      </trkpt>
      <trkpt lat="43.96405" lon="0.49568">
        <ele>203.2</ele>
        <time>2011-07-24T07:54:12Z</time>
      </trkpt>
      <trkpt lat="43.96395" lon="0.49587">
        <ele>203.8</ele>
        <time>2011-07-24T07:54:17Z</time>
      </trkpt>
      <trkpt lat="43.96385" lon="0.49605">
        <ele>204.2</ele>
        <time>2011-07-24T07:54:22Z</time>
      </trkpt>
      <trkpt lat="43.96373" lon="0.49628">
        <ele>204.8</ele>
        <time>2011-07-24T07:54:28Z</time>
      </trkpt>
      <trkpt lat="43.96363" lon="0.49643">
        <ele>205.3</ele>
        <time>2011-07-24T07:54:33Z</time>
      </trkpt>
      <trkpt lat="43.96348" lon="0.49659">
        <ele>206</ele>
        <time>2011-07-24T07:54:39Z</time>
      </trkpt>
      <trkpt lat="43.96338" lon="0.49673">
        <ele>206.6</ele>
        <time>2011-07-24T07:54:44Z</time>
      </trkpt>
      <trkpt lat="43.9632" lon="0.497">
        <ele>207.4</ele>
        <time>2011-07-24T07:54:51Z</time>
      </trkpt>
      <trkpt lat="43.9631" lon="0.49714">
        <ele>208.1</ele>
        <time>2011-07-24T07:54:55Z</time>
      </trkpt>
      <trkpt lat="43.96297" lon="0.49734">
        <ele>208.8</ele>
        <time>2011-07-24T07:55:01Z</time>
      </trkpt>
      <trkpt lat="43.96286" lon="0.49751">
        <ele>209.4</ele>
        <time>2011-07-24T07:55:06Z</time>
      </trkpt>
      <trkpt lat="43.96276" lon="0.49768">
        <ele>210</ele>
        <time>2011-07-24T07:55:11Z</time>
      </trkpt>
      <trkpt lat="43.96267" lon="0.49785">
        <ele>210.6</ele>
        <time>2011-07-24T07:55:16Z</time>
      </trkpt>
      <trkpt lat="43.96259" lon="0.49804">
        <ele>211.5</ele>
        <time>2011-07-24T07:55:21Z</time>
      </trkpt>
      <trkpt lat="43.9625" lon="0.49822">
        <ele>212.3</ele>
        <time>2011-07-24T07:55:26Z</time>
      </trkpt>
      <trkpt lat="43.96241" lon="0.4984">
        <ele>213</ele>
        <time>2011-07-24T07:55:31Z</time>
      </trkpt>
      <trkpt lat="43.96232" lon="0.49868">
        <ele>213.9</ele>
        <time>2011-07-24T07:55:38Z</time>
      </trkpt>
      <trkpt lat="43.96225" lon="0.49889">
        <ele>214.7</ele>
        <time>2011-07-24T07:55:43Z</time>
      </trkpt>
      <trkpt lat="43.96217" lon="0.49908">
        <ele>215.5</ele>
        <time>2011-07-24T07:55:48Z</time>
      </trkpt>
      <trkpt lat="43.9621" lon="0.49925">
        <ele>216.1</ele>
        <time>2011-07-24T07:55:52Z</time>
      </trkpt>
      <trkpt lat="43.96203" lon="0.49947">
        <ele>216.7</ele>
        <time>2011-07-24T07:55:57Z</time>
      </trkpt>
      <trkpt lat="43.96198" lon="0.49966">
        <ele>217.3</ele>
        <time>2011-07-24T07:56:01Z</time>
      </trkpt>
      <trkpt lat="43.96186" lon="0.5">
        <ele>218.3</ele>
        <time>2011-07-24T07:56:09Z</time>
      </trkpt>
      <trkpt lat="43.96178" lon="0.50022">
        <ele>218.6</ele>
        <time>2011-07-24T07:56:14Z</time>
      </trkpt>
      <trkpt lat="43.96171" lon="0.5004">
        <ele>218.9</ele>
        <time>2011-07-24T07:56:18Z</time>
      </trkpt>
      <trkpt lat="43.96157" lon="0.50074">
        <ele>219.7</ele>
        <time>2011-07-24T07:56:26Z</time>
      </trkpt>
      <trkpt lat="43.9615" lon="0.50092">
        <ele>220.2</ele>
        <time>2011-07-24T07:56:30Z</time>
      </trkpt>
      <trkpt lat="43.96134" lon="0.50132">
        <ele>220.5</ele>
        <time>2011-07-24T07:56:38Z</time>
      </trkpt>
      <trkpt lat="43.96131" lon="0.50152">
        <ele>220.3</ele>
        <time>2011-07-24T07:56:42Z</time>
      </trkpt>
      <trkpt lat="43.96117" lon="0.50188">
        <ele>220.2</ele>
        <time>2011-07-24T07:56:49Z</time>
      </trkpt>
      <trkpt lat="43.96093" lon="0.50218">
        <ele>219.7</ele>
        <time>2011-07-24T07:56:57Z</time>
      </trkpt>
      <trkpt lat="43.96085" lon="0.50234">
        <ele>219.3</ele>
        <time>2011-07-24T07:57:01Z</time>
      </trkpt>
      <trkpt lat="43.96072" lon="0.50247">
        <ele>218.6</ele>
        <time>2011-07-24T07:57:06Z</time>
      </trkpt>
      <trkpt lat="43.96046" lon="0.50263">
        <ele>217.7</ele>
        <time>2011-07-24T07:57:14Z</time>
      </trkpt>
      <trkpt lat="43.9603" lon="0.50273">
        <ele>217.2</ele>
        <time>2011-07-24T07:57:19Z</time>
      </trkpt>
      <trkpt lat="43.95994" lon="0.50289">
        <ele>216.2</ele>
        <time>2011-07-24T07:57:25Z</time>
      </trkpt>
      <trkpt lat="43.9596" lon="0.50316">
        <ele>215.4</ele>
        <time>2011-07-24T07:57:31Z</time>
      </trkpt>
      <trkpt lat="43.95934" lon="0.50352">
        <ele>215.3</ele>
        <time>2011-07-24T07:57:37Z</time>
      </trkpt>
      <trkpt lat="43.95913" lon="0.50385">
        <ele>215.5</ele>
        <time>2011-07-24T07:57:43Z</time>
      </trkpt>
      <trkpt lat="43.95893" lon="0.50416">
        <ele>215.8</ele>
        <time>2011-07-24T07:57:49Z</time>
      </trkpt>
      <trkpt lat="43.95869" lon="0.50447">
        <ele>216</ele>
        <time>2011-07-24T07:57:55Z</time>
      </trkpt>
      <trkpt lat="43.95845" lon="0.50473">
        <ele>216.1</ele>
        <time>2011-07-24T07:58:01Z</time>
      </trkpt>
      <trkpt lat="43.95819" lon="0.50499">
        <ele>216.1</ele>
        <time>2011-07-24T07:58:07Z</time>
      </trkpt>
      <trkpt lat="43.95795" lon="0.50526">
        <ele>215.9</ele>
        <time>2011-07-24T07:58:13Z</time>
      </trkpt>
      <trkpt lat="43.95768" lon="0.50549">
        <ele>215.4</ele>
        <time>2011-07-24T07:58:19Z</time>
      </trkpt>
      <trkpt lat="43.95741" lon="0.50569">
        <ele>214.7</ele>
        <time>2011-07-24T07:58:25Z</time>
      </trkpt>
      <trkpt lat="43.95713" lon="0.50587">
        <ele>213.8</ele>
        <time>2011-07-24T07:58:31Z</time>
      </trkpt>
      <trkpt lat="43.95678" lon="0.50606">
        <ele>212.5</ele>
        <time>2011-07-24T07:58:37Z</time>
      </trkpt>
      <trkpt lat="43.95646" lon="0.50627">
        <ele>211.3</ele>
        <time>2011-07-24T07:58:42Z</time>
      </trkpt>
      <trkpt lat="43.95604" lon="0.50655">
        <ele>209.9</ele>
        <time>2011-07-24T07:58:48Z</time>
      </trkpt>
      <trkpt lat="43.95571" lon="0.50677">
        <ele>209</ele>
        <time>2011-07-24T07:58:53Z</time>
      </trkpt>
      <trkpt lat="43.95545" lon="0.5069">
        <ele>208.4</ele>
        <time>2011-07-24T07:58:57Z</time>
      </trkpt>
      <trkpt lat="43.95501" lon="0.50703">
        <ele>207.8</ele>
        <time>2011-07-24T07:59:03Z</time>
      </trkpt>
      <trkpt lat="43.95473" lon="0.50708">
        <ele>207.6</ele>
        <time>2011-07-24T07:59:07Z</time>
      </trkpt>
      <trkpt lat="43.95445" lon="0.50713">
        <ele>207.5</ele>
        <time>2011-07-24T07:59:11Z</time>
      </trkpt>
      <trkpt lat="43.95404" lon="0.50721">
        <ele>207.7</ele>
        <time>2011-07-24T07:59:17Z</time>
      </trkpt>
      <trkpt lat="43.95366" lon="0.50737">
        <ele>208.2</ele>
        <time>2011-07-24T07:59:23Z</time>
      </trkpt>
      <trkpt lat="43.95331" lon="0.50758">
        <ele>209.3</ele>
        <time>2011-07-24T07:59:29Z</time>
      </trkpt>
      <trkpt lat="43.95299" lon="0.50782">
        <ele>210.6</ele>
        <time>2011-07-24T07:59:35Z</time>
      </trkpt>
      <trkpt lat="43.95271" lon="0.50801">
        <ele>211.9</ele>
        <time>2011-07-24T07:59:41Z</time>
      </trkpt>
      <trkpt lat="43.95256" lon="0.50813">
        <ele>212.7</ele>
        <time>2011-07-24T07:59:45Z</time>
      </trkpt>
      <trkpt lat="43.95232" lon="0.50835">
        <ele>214</ele>
        <time>2011-07-24T07:59:51Z</time>
      </trkpt>
      <trkpt lat="43.95209" lon="0.50868">
        <ele>215.4</ele>
        <time>2011-07-24T07:59:57Z</time>
      </trkpt>
      <trkpt lat="43.9519" lon="0.50897">
        <ele>216</ele>
        <time>2011-07-24T08:00:03Z</time>
      </trkpt>
      <trkpt lat="43.95168" lon="0.50928">
        <ele>216.3</ele>
        <time>2011-07-24T08:00:10Z</time>
      </trkpt>
      <trkpt lat="43.95136" lon="0.50945">
        <ele>216</ele>
        <time>2011-07-24T08:00:18Z</time>
      </trkpt>
      <trkpt lat="43.95109" lon="0.50957">
        <ele>215.1</ele>
        <time>2011-07-24T08:00:24Z</time>
      </trkpt>
      <trkpt lat="43.95075" lon="0.50972">
        <ele>213.2</ele>
        <time>2011-07-24T08:00:30Z</time>
      </trkpt>
      <trkpt lat="43.95033" lon="0.50981">
        <ele>209.8</ele>
        <time>2011-07-24T08:00:36Z</time>
      </trkpt>
      <trkpt lat="43.9501" lon="0.50949">
        <ele>206.9</ele>
        <time>2011-07-24T08:00:40Z</time>
      </trkpt>
      <trkpt lat="43.94979" lon="0.50898">
        <ele>203.9</ele>
        <time>2011-07-24T08:00:46Z</time>
      </trkpt>
      <trkpt lat="43.94953" lon="0.50857">
        <ele>201.8</ele>
        <time>2011-07-24T08:00:52Z</time>
      </trkpt>
      <trkpt lat="43.9494" lon="0.50871">
        <ele>198.8</ele>
        <time>2011-07-24T08:00:59Z</time>
      </trkpt>
      <trkpt lat="43.94933" lon="0.50921">
        <ele>195</ele>
        <time>2011-07-24T08:01:04Z</time>
      </trkpt>
      <trkpt lat="43.94904" lon="0.50985">
        <ele>191.4</ele>
        <time>2011-07-24T08:01:10Z</time>
      </trkpt>
      <trkpt lat="43.94859" lon="0.51034">
        <ele>188.3</ele>
        <time>2011-07-24T08:01:16Z</time>
      </trkpt>
      <trkpt lat="43.94814" lon="0.51082">
        <ele>186.3</ele>
        <time>2011-07-24T08:01:22Z</time>
      </trkpt>
      <trkpt lat="43.9478" lon="0.51146">
        <ele>184.7</ele>
        <time>2011-07-24T08:01:28Z</time>
      </trkpt>
      <trkpt lat="43.94757" lon="0.51186">
        <ele>183.7</ele>
        <time>2011-07-24T08:01:32Z</time>
      </trkpt>
      <trkpt lat="43.94752" lon="0.51223">
        <ele>183.7</ele>
        <time>2011-07-24T08:01:37Z</time>
      </trkpt>
      <trkpt lat="43.94776" lon="0.51245">
        <ele>185.8</ele>
        <time>2011-07-24T08:01:43Z</time>
      </trkpt>
      <trkpt lat="43.948" lon="0.51267">
        <ele>189.5</ele>
        <time>2011-07-24T08:01:49Z</time>
      </trkpt>
      <trkpt lat="43.94826" lon="0.51287">
        <ele>191.9</ele>
        <time>2011-07-24T08:01:56Z</time>
      </trkpt>
      <trkpt lat="43.94838" lon="0.51295">
        <ele>192.4</ele>
        <time>2011-07-24T08:02:00Z</time>
      </trkpt>
      <trkpt lat="43.94853" lon="0.51311">
        <ele>191.7</ele>
        <time>2011-07-24T08:02:04Z</time>
      </trkpt>
      <trkpt lat="43.94885" lon="0.51368">
        <ele>187.1</ele>
        <time>2011-07-24T08:02:10Z</time>
      </trkpt>
      <trkpt lat="43.94908" lon="0.51464">
        <ele>180</ele>
        <time>2011-07-24T08:02:16Z</time>
      </trkpt>
      <trkpt lat="43.94956" lon="0.51538">
        <ele>176.8</ele>
        <time>2011-07-24T08:02:22Z</time>
      </trkpt>
      <trkpt lat="43.94983" lon="0.51579">
        <ele>177.7</ele>
        <time>2011-07-24T08:02:26Z</time>
      </trkpt>
      <trkpt lat="43.95003" lon="0.5162">
        <ele>179</ele>
        <time>2011-07-24T08:02:31Z</time>
      </trkpt>
      <trkpt lat="43.9501" lon="0.51677">
        <ele>179.5</ele>
        <time>2011-07-24T08:02:37Z</time>
      </trkpt>
      <trkpt lat="43.95027" lon="0.51716">
        <ele>180.6</ele>
        <time>2011-07-24T08:02:44Z</time>
      </trkpt>
      <trkpt lat="43.95054" lon="0.51726">
        <ele>182.2</ele>
        <time>2011-07-24T08:02:50Z</time>
      </trkpt>
      <trkpt lat="43.95084" lon="0.51739">
        <ele>183.5</ele>
        <time>2011-07-24T08:02:57Z</time>
      </trkpt>
      <trkpt lat="43.95099" lon="0.51744">
        <ele>184.3</ele>
        <time>2011-07-24T08:03:01Z</time>
      </trkpt>
      <trkpt lat="43.9511" lon="0.5173">
        <ele>184.7</ele>
        <time>2011-07-24T08:03:07Z</time>
      </trkpt>
      <trkpt lat="43.95121" lon="0.51694">
        <ele>185.4</ele>
        <time>2011-07-24T08:03:15Z</time>
      </trkpt>
      <trkpt lat="43.95136" lon="0.51657">
        <ele>186.2</ele>
        <time>2011-07-24T08:03:23Z</time>
      </trkpt>
      <trkpt lat="43.95146" lon="0.5164">
        <ele>186.5</ele>
        <time>2011-07-24T08:03:27Z</time>
      </trkpt>
      <trkpt lat="43.95169" lon="0.51623">
        <ele>186.8</ele>
        <time>2011-07-24T08:03:36Z</time>
      </trkpt>
      <trkpt lat="43.95176" lon="0.51644">
        <ele>186.5</ele>
        <time>2011-07-24T08:03:40Z</time>
      </trkpt>
      <trkpt lat="43.95188" lon="0.5168">
        <ele>185.9</ele>
        <time>2011-07-24T08:03:46Z</time>
      </trkpt>
      <trkpt lat="43.952" lon="0.51718">
        <ele>185.2</ele>
        <time>2011-07-24T08:03:52Z</time>
      </trkpt>
      <trkpt lat="43.95214" lon="0.51759">
        <ele>184.4</ele>
        <time>2011-07-24T08:03:58Z</time>
      </trkpt>
      <trkpt lat="43.95229" lon="0.51801">
        <ele>183.5</ele>
        <time>2011-07-24T08:04:04Z</time>
      </trkpt>
      <trkpt lat="43.95244" lon="0.51843">
        <ele>183.7</ele>
        <time>2011-07-24T08:04:10Z</time>
      </trkpt>
      <trkpt lat="43.95258" lon="0.51883">
        <ele>184.5</ele>
        <time>2011-07-24T08:04:16Z</time>
      </trkpt>
      <trkpt lat="43.95273" lon="0.51921">
        <ele>185.5</ele>
        <time>2011-07-24T08:04:22Z</time>
      </trkpt>
      <trkpt lat="43.95287" lon="0.51956">
        <ele>186.2</ele>
        <time>2011-07-24T08:04:28Z</time>
      </trkpt>
      <trkpt lat="43.95302" lon="0.51994">
        <ele>186.8</ele>
        <time>2011-07-24T08:04:35Z</time>
      </trkpt>
      <trkpt lat="43.9531" lon="0.52015">
        <ele>187.2</ele>
        <time>2011-07-24T08:04:39Z</time>
      </trkpt>
      <trkpt lat="43.95318" lon="0.52036">
        <ele>187.5</ele>
        <time>2011-07-24T08:04:43Z</time>
      </trkpt>
      <trkpt lat="43.95332" lon="0.52074">
        <ele>187.4</ele>
        <time>2011-07-24T08:04:50Z</time>
      </trkpt>
      <trkpt lat="43.95347" lon="0.52113">
        <ele>187</ele>
        <time>2011-07-24T08:04:57Z</time>
      </trkpt>
      <trkpt lat="43.95367" lon="0.52148">
        <ele>186.8</ele>
        <time>2011-07-24T08:05:04Z</time>
      </trkpt>
      <trkpt lat="43.95388" lon="0.52183">
        <ele>186.8</ele>
        <time>2011-07-24T08:05:10Z</time>
      </trkpt>
      <trkpt lat="43.95408" lon="0.52217">
        <ele>186.3</ele>
        <time>2011-07-24T08:05:16Z</time>
      </trkpt>
      <trkpt lat="43.95428" lon="0.52251">
        <ele>186.7</ele>
        <time>2011-07-24T08:05:22Z</time>
      </trkpt>
      <trkpt lat="43.95446" lon="0.52284">
        <ele>187.3</ele>
        <time>2011-07-24T08:05:28Z</time>
      </trkpt>
      <trkpt lat="43.95463" lon="0.52318">
        <ele>187.5</ele>
        <time>2011-07-24T08:05:34Z</time>
      </trkpt>
      <trkpt lat="43.95482" lon="0.52352">
        <ele>187.6</ele>
        <time>2011-07-24T08:05:40Z</time>
      </trkpt>
      <trkpt lat="43.955" lon="0.52385">
        <ele>187.6</ele>
        <time>2011-07-24T08:05:46Z</time>
      </trkpt>
      <trkpt lat="43.95516" lon="0.52418">
        <ele>186.8</ele>
        <time>2011-07-24T08:05:52Z</time>
      </trkpt>
      <trkpt lat="43.95536" lon="0.52451">
        <ele>185.3</ele>
        <time>2011-07-24T08:05:58Z</time>
      </trkpt>
      <trkpt lat="43.95566" lon="0.52483">
        <ele>182.5</ele>
        <time>2011-07-24T08:06:04Z</time>
      </trkpt>
      <trkpt lat="43.95599" lon="0.52515">
        <ele>179.2</ele>
        <time>2011-07-24T08:06:10Z</time>
      </trkpt>
      <trkpt lat="43.95636" lon="0.52495">
        <ele>176</ele>
        <time>2011-07-24T08:06:17Z</time>
      </trkpt>
      <trkpt lat="43.95657" lon="0.52467">
        <ele>176.3</ele>
        <time>2011-07-24T08:06:23Z</time>
      </trkpt>
      <trkpt lat="43.9568" lon="0.52436">
        <ele>176.7</ele>
        <time>2011-07-24T08:06:30Z</time>
      </trkpt>
      <trkpt lat="43.95703" lon="0.52406">
        <ele>177.4</ele>
        <time>2011-07-24T08:06:38Z</time>
      </trkpt>
      <trkpt lat="43.95715" lon="0.52394">
        <ele>177.8</ele>
        <time>2011-07-24T08:06:43Z</time>
      </trkpt>
      <trkpt lat="43.95717" lon="0.52413">
        <ele>177.6</ele>
        <time>2011-07-24T08:06:49Z</time>
      </trkpt>
      <trkpt lat="43.9571" lon="0.52454">
        <ele>176.2</ele>
        <time>2011-07-24T08:06:55Z</time>
      </trkpt>
      <trkpt lat="43.95707" lon="0.52502">
        <ele>174.5</ele>
        <time>2011-07-24T08:07:01Z</time>
      </trkpt>
      <trkpt lat="43.95695" lon="0.52538">
        <ele>173.2</ele>
        <time>2011-07-24T08:07:07Z</time>
      </trkpt>
      <trkpt lat="43.95684" lon="0.52571">
        <ele>171.6</ele>
        <time>2011-07-24T08:07:14Z</time>
      </trkpt>
      <trkpt lat="43.95692" lon="0.52613">
        <ele>170.6</ele>
        <time>2011-07-24T08:07:20Z</time>
      </trkpt>
      <trkpt lat="43.95702" lon="0.52643">
        <ele>168.5</ele>
        <time>2011-07-24T08:07:24Z</time>
      </trkpt>
      <trkpt lat="43.95717" lon="0.52688">
        <ele>161.5</ele>
        <time>2011-07-24T08:07:30Z</time>
      </trkpt>
      <trkpt lat="43.95737" lon="0.52733">
        <ele>154.3</ele>
        <time>2011-07-24T08:07:36Z</time>
      </trkpt>
      <trkpt lat="43.95748" lon="0.52779">
        <ele>148.3</ele>
        <time>2011-07-24T08:07:43Z</time>
      </trkpt>
      <trkpt lat="43.95758" lon="0.5282">
        <ele>144.1</ele>
        <time>2011-07-24T08:07:50Z</time>
      </trkpt>
      <trkpt lat="43.95793" lon="0.52822">
        <ele>139.5</ele>
        <time>2011-07-24T08:07:56Z</time>
      </trkpt>
      <trkpt lat="43.95814" lon="0.52852">
        <ele>135.7</ele>
        <time>2011-07-24T08:08:01Z</time>
      </trkpt>
      <trkpt lat="43.95823" lon="0.52897">
        <ele>131.4</ele>
        <time>2011-07-24T08:08:05Z</time>
      </trkpt>
      <trkpt lat="43.9583" lon="0.52969">
        <ele>123.9</ele>
        <time>2011-07-24T08:08:11Z</time>
      </trkpt>
      <trkpt lat="43.95835" lon="0.53017">
        <ele>120.3</ele>
        <time>2011-07-24T08:08:15Z</time>
      </trkpt>
      <trkpt lat="43.9584" lon="0.5306">
        <ele>117.5</ele>
        <time>2011-07-24T08:08:19Z</time>
      </trkpt>
      <trkpt lat="43.95851" lon="0.53116">
        <ele>113.3</ele>
        <time>2011-07-24T08:08:25Z</time>
      </trkpt>
      <trkpt lat="43.95873" lon="0.53174">
        <ele>107.3</ele>
        <time>2011-07-24T08:08:31Z</time>
      </trkpt>
      <trkpt lat="43.95887" lon="0.53216">
        <ele>103.8</ele>
        <time>2011-07-24T08:08:37Z</time>
      </trkpt>
      <trkpt lat="43.95915" lon="0.53215">
        <ele>103</ele>
        <time>2011-07-24T08:08:43Z</time>
      </trkpt>
      <trkpt lat="43.95949" lon="0.53199">
        <ele>102.2</ele>
        <time>2011-07-24T08:08:51Z</time>
      </trkpt>
      <trkpt lat="43.95977" lon="0.53185">
        <ele>101.8</ele>
        <time>2011-07-24T08:08:57Z</time>
      </trkpt>
      <trkpt lat="43.96002" lon="0.5316">
        <ele>101.7</ele>
        <time>2011-07-24T08:09:04Z</time>
      </trkpt>
      <trkpt lat="43.96029" lon="0.53174">
        <ele>101.1</ele>
        <time>2011-07-24T08:09:12Z</time>
      </trkpt>
      <trkpt lat="43.96041" lon="0.53186">
        <ele>101</ele>
        <time>2011-07-24T08:09:16Z</time>
      </trkpt>
      <trkpt lat="43.96067" lon="0.53201">
        <ele>101.3</ele>
        <time>2011-07-24T08:09:25Z</time>
      </trkpt>
      <trkpt lat="43.96082" lon="0.53199">
        <ele>101.7</ele>
        <time>2011-07-24T08:09:30Z</time>
      </trkpt>
      <trkpt lat="43.96098" lon="0.53195">
        <ele>102.7</ele>
        <time>2011-07-24T08:09:36Z</time>
      </trkpt>
      <trkpt lat="43.96111" lon="0.53196">
        <ele>103.9</ele>
        <time>2011-07-24T08:09:41Z</time>
      </trkpt>
      <trkpt lat="43.96125" lon="0.53198">
        <ele>105.8</ele>
        <time>2011-07-24T08:09:47Z</time>
      </trkpt>
      <trkpt lat="43.96141" lon="0.532">
        <ele>108.5</ele>
        <time>2011-07-24T08:09:55Z</time>
      </trkpt>
      <trkpt lat="43.96156" lon="0.532">
        <ele>110.4</ele>
        <time>2011-07-24T08:10:02Z</time>
      </trkpt>
      <trkpt lat="43.96171" lon="0.53198">
        <ele>111.9</ele>
        <time>2011-07-24T08:10:09Z</time>
      </trkpt>
      <trkpt lat="43.96185" lon="0.53194">
        <ele>113.3</ele>
        <time>2011-07-24T08:10:17Z</time>
      </trkpt>
      <trkpt lat="43.96199" lon="0.5319">
        <ele>115.3</ele>
        <time>2011-07-24T08:10:26Z</time>
      </trkpt>
      <trkpt lat="43.96212" lon="0.53185">
        <ele>117.4</ele>
        <time>2011-07-24T08:10:34Z</time>
      </trkpt>
      <trkpt lat="43.96226" lon="0.5318">
        <ele>119.4</ele>
        <time>2011-07-24T08:10:42Z</time>
      </trkpt>
      <trkpt lat="43.96239" lon="0.53176">
        <ele>121.4</ele>
        <time>2011-07-24T08:10:50Z</time>
      </trkpt>
      <trkpt lat="43.96253" lon="0.53173">
        <ele>123.1</ele>
        <time>2011-07-24T08:10:58Z</time>
      </trkpt>
      <trkpt lat="43.96267" lon="0.53173">
        <ele>125.4</ele>
        <time>2011-07-24T08:11:08Z</time>
      </trkpt>
      <trkpt lat="43.96281" lon="0.53181">
        <ele>128.2</ele>
        <time>2011-07-24T08:11:19Z</time>
      </trkpt>
      <trkpt lat="43.96292" lon="0.53192">
        <ele>130.9</ele>
        <time>2011-07-24T08:11:27Z</time>
      </trkpt>
      <trkpt lat="43.96305" lon="0.53202">
        <ele>133.1</ele>
        <time>2011-07-24T08:11:34Z</time>
      </trkpt>
      <trkpt lat="43.96317" lon="0.53213">
        <ele>134.8</ele>
        <time>2011-07-24T08:11:41Z</time>
      </trkpt>
      <trkpt lat="43.96329" lon="0.53223">
        <ele>136.2</ele>
        <time>2011-07-24T08:11:48Z</time>
      </trkpt>
      <trkpt lat="43.96343" lon="0.53229">
        <ele>137.1</ele>
        <time>2011-07-24T08:11:56Z</time>
      </trkpt>
      <trkpt lat="43.96359" lon="0.53219">
        <ele>139</ele>
        <time>2011-07-24T08:12:07Z</time>
      </trkpt>
      <trkpt lat="43.96371" lon="0.53207">
        <ele>141.4</ele>
        <time>2011-07-24T08:12:15Z</time>
      </trkpt>
      <trkpt lat="43.96384" lon="0.532">
        <ele>143</ele>
        <time>2011-07-24T08:12:21Z</time>
      </trkpt>
      <trkpt lat="43.96397" lon="0.53195">
        <ele>143.7</ele>
        <time>2011-07-24T08:12:27Z</time>
      </trkpt>
      <trkpt lat="43.9641" lon="0.53185">
        <ele>144.5</ele>
        <time>2011-07-24T08:12:33Z</time>
      </trkpt>
      <trkpt lat="43.96422" lon="0.53171">
        <ele>146.6</ele>
        <time>2011-07-24T08:12:40Z</time>
      </trkpt>
      <trkpt lat="43.96433" lon="0.53156">
        <ele>148.5</ele>
        <time>2011-07-24T08:12:47Z</time>
      </trkpt>
      <trkpt lat="43.96445" lon="0.53143">
        <ele>151.5</ele>
        <time>2011-07-24T08:12:54Z</time>
      </trkpt>
      <trkpt lat="43.96457" lon="0.53132">
        <ele>153.6</ele>
        <time>2011-07-24T08:13:01Z</time>
      </trkpt>
      <trkpt lat="43.96467" lon="0.53117">
        <ele>155.2</ele>
        <time>2011-07-24T08:13:08Z</time>
      </trkpt>
      <trkpt lat="43.96474" lon="0.53097">
        <ele>157.1</ele>
        <time>2011-07-24T08:13:15Z</time>
      </trkpt>
      <trkpt lat="43.9648" lon="0.53075">
        <ele>158.8</ele>
        <time>2011-07-24T08:13:23Z</time>
      </trkpt>
      <trkpt lat="43.96486" lon="0.53057">
        <ele>160.2</ele>
        <time>2011-07-24T08:13:30Z</time>
      </trkpt>
      <trkpt lat="43.96498" lon="0.53047">
        <ele>160.9</ele>
        <time>2011-07-24T08:14:11Z</time>
      </trkpt>
      <trkpt lat="43.96513" lon="0.53043">
        <ele>161.9</ele>
        <time>2011-07-24T08:14:19Z</time>
      </trkpt>
      <trkpt lat="43.96526" lon="0.53044">
        <ele>163</ele>
        <time>2011-07-24T08:14:26Z</time>
      </trkpt>
      <trkpt lat="43.96542" lon="0.53046">
        <ele>164.4</ele>
        <time>2011-07-24T08:14:33Z</time>
      </trkpt>
      <trkpt lat="43.96554" lon="0.53055">
        <ele>165.7</ele>
        <time>2011-07-24T08:14:40Z</time>
      </trkpt>
      <trkpt lat="43.96566" lon="0.53069">
        <ele>166.5</ele>
        <time>2011-07-24T08:14:48Z</time>
      </trkpt>
      <trkpt lat="43.96581" lon="0.53073">
        <ele>167.3</ele>
        <time>2011-07-24T08:14:54Z</time>
      </trkpt>
      <trkpt lat="43.96597" lon="0.53063">
        <ele>167.9</ele>
        <time>2011-07-24T08:15:01Z</time>
      </trkpt>
      <trkpt lat="43.96613" lon="0.53049">
        <ele>168.3</ele>
        <time>2011-07-24T08:15:08Z</time>
      </trkpt>
      <trkpt lat="43.96626" lon="0.5304">
        <ele>167.7</ele>
        <time>2011-07-24T08:15:13Z</time>
      </trkpt>
      <trkpt lat="43.9664" lon="0.53033">
        <ele>167</ele>
        <time>2011-07-24T08:15:18Z</time>
      </trkpt>
      <trkpt lat="43.96657" lon="0.53029">
        <ele>166.6</ele>
        <time>2011-07-24T08:15:23Z</time>
      </trkpt>
      <trkpt lat="43.96687" lon="0.5303">
        <ele>168.1</ele>
        <time>2011-07-24T08:15:31Z</time>
      </trkpt>
      <trkpt lat="43.96711" lon="0.53007">
        <ele>167.9</ele>
        <time>2011-07-24T08:15:39Z</time>
      </trkpt>
      <trkpt lat="43.96717" lon="0.52985">
        <ele>167.8</ele>
        <time>2011-07-24T08:15:44Z</time>
      </trkpt>
      <trkpt lat="43.96732" lon="0.52951">
        <ele>168.6</ele>
        <time>2011-07-24T08:15:52Z</time>
      </trkpt>
      <trkpt lat="43.96752" lon="0.52923">
        <ele>169.8</ele>
        <time>2011-07-24T08:16:00Z</time>
      </trkpt>
      <trkpt lat="43.96773" lon="0.52894">
        <ele>168.7</ele>
        <time>2011-07-24T08:16:08Z</time>
      </trkpt>
      <trkpt lat="43.96796" lon="0.52866">
        <ele>168.5</ele>
        <time>2011-07-24T08:16:16Z</time>
      </trkpt>
      <trkpt lat="43.96818" lon="0.52838">
        <ele>169.3</ele>
        <time>2011-07-24T08:16:23Z</time>
      </trkpt>
      <trkpt lat="43.9684" lon="0.52809">
        <ele>172</ele>
        <time>2011-07-24T08:16:30Z</time>
      </trkpt>
      <trkpt lat="43.96851" lon="0.52795">
        <ele>172.6</ele>
        <time>2011-07-24T08:16:34Z</time>
      </trkpt>
      <trkpt lat="43.96872" lon="0.52765">
        <ele>171.4</ele>
        <time>2011-07-24T08:16:42Z</time>
      </trkpt>
      <trkpt lat="43.96896" lon="0.52733">
        <ele>171.1</ele>
        <time>2011-07-24T08:16:50Z</time>
      </trkpt>
      <trkpt lat="43.96909" lon="0.52716">
        <ele>171.1</ele>
        <time>2011-07-24T08:16:54Z</time>
      </trkpt>
      <trkpt lat="43.96931" lon="0.52678">
        <ele>169.3</ele>
        <time>2011-07-24T08:17:02Z</time>
      </trkpt>
      <trkpt lat="43.96947" lon="0.52645">
        <ele>169</ele>
        <time>2011-07-24T08:17:08Z</time>
      </trkpt>
      <trkpt lat="43.96963" lon="0.52612">
        <ele>171.1</ele>
        <time>2011-07-24T08:17:14Z</time>
      </trkpt>
      <trkpt lat="43.96976" lon="0.52575">
        <ele>169.8</ele>
        <time>2011-07-24T08:17:21Z</time>
      </trkpt>
      <trkpt lat="43.96982" lon="0.52557">
        <ele>169.3</ele>
        <time>2011-07-24T08:17:25Z</time>
      </trkpt>
      <trkpt lat="43.96995" lon="0.52521">
        <ele>168.9</ele>
        <time>2011-07-24T08:17:32Z</time>
      </trkpt>
      <trkpt lat="43.97002" lon="0.52479">
        <ele>167.7</ele>
        <time>2011-07-24T08:17:37Z</time>
      </trkpt>
      <trkpt lat="43.97009" lon="0.52439">
        <ele>168.8</ele>
        <time>2011-07-24T08:17:41Z</time>
      </trkpt>
      <trkpt lat="43.97022" lon="0.52389">
        <ele>167.1</ele>
        <time>2011-07-24T08:17:47Z</time>
      </trkpt>
      <trkpt lat="43.97039" lon="0.52346">
        <ele>167.8</ele>
        <time>2011-07-24T08:17:53Z</time>
      </trkpt>
      <trkpt lat="43.97049" lon="0.52309">
        <ele>169.6</ele>
        <time>2011-07-24T08:17:59Z</time>
      </trkpt>
      <trkpt lat="43.9706" lon="0.52265">
        <ele>169.4</ele>
        <time>2011-07-24T08:18:07Z</time>
      </trkpt>
      <trkpt lat="43.97064" lon="0.52241">
        <ele>169.7</ele>
        <time>2011-07-24T08:18:13Z</time>
      </trkpt>
      <trkpt lat="43.97068" lon="0.52219">
        <ele>170.1</ele>
        <time>2011-07-24T08:18:18Z</time>
      </trkpt>
      <trkpt lat="43.97074" lon="0.52198">
        <ele>171.2</ele>
        <time>2011-07-24T08:18:23Z</time>
      </trkpt>
      <trkpt lat="43.97087" lon="0.5216">
        <ele>172.5</ele>
        <time>2011-07-24T08:18:31Z</time>
      </trkpt>
      <trkpt lat="43.97098" lon="0.52131">
        <ele>173.5</ele>
        <time>2011-07-24T08:18:37Z</time>
      </trkpt>
      <trkpt lat="43.97113" lon="0.52101">
        <ele>174.3</ele>
        <time>2011-07-24T08:18:44Z</time>
      </trkpt>
      <trkpt lat="43.97121" lon="0.52084">
        <ele>174.9</ele>
        <time>2011-07-24T08:18:48Z</time>
      </trkpt>
      <trkpt lat="43.97129" lon="0.52064">
        <ele>174.7</ele>
        <time>2011-07-24T08:18:53Z</time>
      </trkpt>
      <trkpt lat="43.97149" lon="0.52023">
        <ele>175.3</ele>
        <time>2011-07-24T08:18:59Z</time>
      </trkpt>
      <trkpt lat="43.97175" lon="0.5199">
        <ele>177.3</ele>
        <time>2011-07-24T08:19:05Z</time>
      </trkpt>
      <trkpt lat="43.97203" lon="0.51958">
        <ele>173.1</ele>
        <time>2011-07-24T08:19:13Z</time>
      </trkpt>
      <trkpt lat="43.97222" lon="0.51939">
        <ele>173.2</ele>
        <time>2011-07-24T08:19:18Z</time>
      </trkpt>
      <trkpt lat="43.97251" lon="0.5192">
        <ele>175.5</ele>
        <time>2011-07-24T08:19:24Z</time>
      </trkpt>
      <trkpt lat="43.97276" lon="0.51901">
        <ele>176.7</ele>
        <time>2011-07-24T08:19:30Z</time>
      </trkpt>
      <trkpt lat="43.97298" lon="0.51872">
        <ele>175.8</ele>
        <time>2011-07-24T08:19:36Z</time>
      </trkpt>
      <trkpt lat="43.97318" lon="0.51862">
        <ele>175.7</ele>
        <time>2011-07-24T08:19:41Z</time>
      </trkpt>
      <trkpt lat="43.97334" lon="0.51852">
        <ele>176.6</ele>
        <time>2011-07-24T08:19:45Z</time>
      </trkpt>
      <trkpt lat="43.97345" lon="0.51833">
        <ele>177.1</ele>
        <time>2011-07-24T08:19:49Z</time>
      </trkpt>
      <trkpt lat="43.97359" lon="0.51794">
        <ele>175.5</ele>
        <time>2011-07-24T08:19:56Z</time>
      </trkpt>
      <trkpt lat="43.97372" lon="0.51758">
        <ele>174.5</ele>
        <time>2011-07-24T08:20:02Z</time>
      </trkpt>
      <trkpt lat="43.97387" lon="0.51719">
        <ele>172</ele>
        <time>2011-07-24T08:20:08Z</time>
      </trkpt>
      <trkpt lat="43.97403" lon="0.51678">
        <ele>171.1</ele>
        <time>2011-07-24T08:20:14Z</time>
      </trkpt>
      <trkpt lat="43.97417" lon="0.51641">
        <ele>171.8</ele>
        <time>2011-07-24T08:20:20Z</time>
      </trkpt>
      <trkpt lat="43.9743" lon="0.51605">
        <ele>172.8</ele>
        <time>2011-07-24T08:20:26Z</time>
      </trkpt>
      <trkpt lat="43.97444" lon="0.51564">
        <ele>174.9</ele>
        <time>2011-07-24T08:20:33Z</time>
      </trkpt>
      <trkpt lat="43.97452" lon="0.51542">
        <ele>176.4</ele>
        <time>2011-07-24T08:20:37Z</time>
      </trkpt>
      <trkpt lat="43.97468" lon="0.51506">
        <ele>178.2</ele>
        <time>2011-07-24T08:20:44Z</time>
      </trkpt>
      <trkpt lat="43.97482" lon="0.51492">
        <ele>179.2</ele>
        <time>2011-07-24T08:20:48Z</time>
      </trkpt>
      <trkpt lat="43.97495" lon="0.5148">
        <ele>180.3</ele>
        <time>2011-07-24T08:20:52Z</time>
      </trkpt>
      <trkpt lat="43.9752" lon="0.51459">
        <ele>181.5</ele>
        <time>2011-07-24T08:21:00Z</time>
      </trkpt>
      <trkpt lat="43.97548" lon="0.51438">
        <ele>182.7</ele>
        <time>2011-07-24T08:21:08Z</time>
      </trkpt>
      <trkpt lat="43.97561" lon="0.51425">
        <ele>183.4</ele>
        <time>2011-07-24T08:21:12Z</time>
      </trkpt>
      <trkpt lat="43.97574" lon="0.51413">
        <ele>184.2</ele>
        <time>2011-07-24T08:21:16Z</time>
      </trkpt>
      <trkpt lat="43.976" lon="0.51391">
        <ele>184.6</ele>
        <time>2011-07-24T08:21:24Z</time>
      </trkpt>
      <trkpt lat="43.97627" lon="0.5137">
        <ele>184.7</ele>
        <time>2011-07-24T08:21:32Z</time>
      </trkpt>
      <trkpt lat="43.97651" lon="0.51337">
        <ele>185.8</ele>
        <time>2011-07-24T08:21:40Z</time>
      </trkpt>
      <trkpt lat="43.97661" lon="0.51293">
        <ele>187</ele>
        <time>2011-07-24T08:21:46Z</time>
      </trkpt>
      <trkpt lat="43.97674" lon="0.51246">
        <ele>188.9</ele>
        <time>2011-07-24T08:21:52Z</time>
      </trkpt>
      <trkpt lat="43.97685" lon="0.51207">
        <ele>190</ele>
        <time>2011-07-24T08:22:02Z</time>
      </trkpt>
      <trkpt lat="43.97694" lon="0.51191">
        <ele>190.1</ele>
        <time>2011-07-24T08:22:07Z</time>
      </trkpt>
      <trkpt lat="43.97717" lon="0.51159">
        <ele>190.4</ele>
        <time>2011-07-24T08:22:15Z</time>
      </trkpt>
      <trkpt lat="43.97739" lon="0.51131">
        <ele>190.9</ele>
        <time>2011-07-24T08:22:23Z</time>
      </trkpt>
      <trkpt lat="43.97759" lon="0.51098">
        <ele>191</ele>
        <time>2011-07-24T08:22:31Z</time>
      </trkpt>
      <trkpt lat="43.97769" lon="0.51078">
        <ele>191.2</ele>
        <time>2011-07-24T08:22:36Z</time>
      </trkpt>
      <trkpt lat="43.97786" lon="0.51039">
        <ele>191.1</ele>
        <time>2011-07-24T08:22:44Z</time>
      </trkpt>
      <trkpt lat="43.978" lon="0.51001">
        <ele>191.3</ele>
        <time>2011-07-24T08:22:53Z</time>
      </trkpt>
      <trkpt lat="43.97806" lon="0.50982">
        <ele>191.2</ele>
        <time>2011-07-24T08:22:57Z</time>
      </trkpt>
      <trkpt lat="43.9781" lon="0.50962">
        <ele>191.2</ele>
        <time>2011-07-24T08:23:01Z</time>
      </trkpt>
      <trkpt lat="43.97813" lon="0.50937">
        <ele>191.3</ele>
        <time>2011-07-24T08:23:06Z</time>
      </trkpt>
      <trkpt lat="43.97815" lon="0.50917">
        <ele>191.3</ele>
        <time>2011-07-24T08:23:10Z</time>
      </trkpt>
      <trkpt lat="43.97819" lon="0.50895">
        <ele>191.5</ele>
        <time>2011-07-24T08:23:14Z</time>
      </trkpt>
      <trkpt lat="43.97822" lon="0.50873">
        <ele>191.6</ele>
        <time>2011-07-24T08:23:18Z</time>
      </trkpt>
      <trkpt lat="43.97826" lon="0.50832">
        <ele>191.3</ele>
        <time>2011-07-24T08:23:24Z</time>
      </trkpt>
      <trkpt lat="43.97832" lon="0.50789">
        <ele>191.4</ele>
        <time>2011-07-24T08:23:30Z</time>
      </trkpt>
      <trkpt lat="43.97844" lon="0.50751">
        <ele>191.8</ele>
        <time>2011-07-24T08:23:36Z</time>
      </trkpt>
      <trkpt lat="43.97862" lon="0.50716">
        <ele>192.3</ele>
        <time>2011-07-24T08:23:42Z</time>
      </trkpt>
      <trkpt lat="43.9788" lon="0.50679">
        <ele>193.2</ele>
        <time>2011-07-24T08:23:48Z</time>
      </trkpt>
      <trkpt lat="43.97895" lon="0.50641">
        <ele>193.9</ele>
        <time>2011-07-24T08:23:54Z</time>
      </trkpt>
      <trkpt lat="43.97906" lon="0.50603">
        <ele>194.2</ele>
        <time>2011-07-24T08:24:00Z</time>
      </trkpt>
      <trkpt lat="43.97917" lon="0.50566">
        <ele>194.4</ele>
        <time>2011-07-24T08:24:06Z</time>
      </trkpt>
      <trkpt lat="43.97927" lon="0.5053">
        <ele>194.5</ele>
        <time>2011-07-24T08:24:12Z</time>
      </trkpt>
      <trkpt lat="43.97939" lon="0.50495">
        <ele>194.9</ele>
        <time>2011-07-24T08:24:18Z</time>
      </trkpt>
      <trkpt lat="43.97955" lon="0.50461">
        <ele>194.9</ele>
        <time>2011-07-24T08:24:24Z</time>
      </trkpt>
      <trkpt lat="43.97977" lon="0.50432">
        <ele>194.9</ele>
        <time>2011-07-24T08:24:30Z</time>
      </trkpt>
      <trkpt lat="43.98001" lon="0.50407">
        <ele>194.7</ele>
        <time>2011-07-24T08:24:36Z</time>
      </trkpt>
      <trkpt lat="43.98016" lon="0.50393">
        <ele>194.9</ele>
        <time>2011-07-24T08:24:40Z</time>
      </trkpt>
      <trkpt lat="43.9804" lon="0.50375">
        <ele>195</ele>
        <time>2011-07-24T08:24:46Z</time>
      </trkpt>
      <trkpt lat="43.98054" lon="0.50365">
        <ele>194.4</ele>
        <time>2011-07-24T08:24:50Z</time>
      </trkpt>
      <trkpt lat="43.98071" lon="0.50327">
        <ele>194.1</ele>
        <time>2011-07-24T08:24:58Z</time>
      </trkpt>
      <trkpt lat="43.98085" lon="0.50289">
        <ele>194</ele>
        <time>2011-07-24T08:25:04Z</time>
      </trkpt>
      <trkpt lat="43.98098" lon="0.50252">
        <ele>194</ele>
        <time>2011-07-24T08:25:10Z</time>
      </trkpt>
      <trkpt lat="43.98103" lon="0.50213">
        <ele>192.6</ele>
        <time>2011-07-24T08:25:16Z</time>
      </trkpt>
      <trkpt lat="43.98099" lon="0.5017">
        <ele>191.1</ele>
        <time>2011-07-24T08:25:22Z</time>
      </trkpt>
      <trkpt lat="43.98094" lon="0.50121">
        <ele>189.4</ele>
        <time>2011-07-24T08:25:28Z</time>
      </trkpt>
      <trkpt lat="43.98087" lon="0.50075">
        <ele>187.6</ele>
        <time>2011-07-24T08:25:33Z</time>
      </trkpt>
      <trkpt lat="43.98082" lon="0.50037">
        <ele>185.9</ele>
        <time>2011-07-24T08:25:37Z</time>
      </trkpt>
      <trkpt lat="43.981" lon="0.4998">
        <ele>186.3</ele>
        <time>2011-07-24T08:25:44Z</time>
      </trkpt>
      <trkpt lat="43.98121" lon="0.49948">
        <ele>188</ele>
        <time>2011-07-24T08:25:50Z</time>
      </trkpt>
      <trkpt lat="43.98154" lon="0.49927">
        <ele>188</ele>
        <time>2011-07-24T08:25:57Z</time>
      </trkpt>
      <trkpt lat="43.98189" lon="0.49926">
        <ele>191</ele>
        <time>2011-07-24T08:26:03Z</time>
      </trkpt>
      <trkpt lat="43.98217" lon="0.49899">
        <ele>190.6</ele>
        <time>2011-07-24T08:26:09Z</time>
      </trkpt>
      <trkpt lat="43.98238" lon="0.49866">
        <ele>190.3</ele>
        <time>2011-07-24T08:26:15Z</time>
      </trkpt>
      <trkpt lat="43.98262" lon="0.49827">
        <ele>190.1</ele>
        <time>2011-07-24T08:26:23Z</time>
      </trkpt>
    </trkseg>
  </trk>
</gpx>